Observation data for Palo Duro Canyon State Park Floor on 10/18/2019      Previous  Date       Current Mesonet Observations  Soil Data  Daily Summary Page  Observations in Plain Language
KPD2 180500Z 11008KT 18/06 A2983 RMK A01 T01840064  RH  045%=      5-min Rain = 0
KPD2 180501Z 11005KT 18/06 A2983 RMK A01 T01840063  RH  045%=      5-min Rain = 0
KPD2 180502Z 13013G20KT 18/06 A2983 RMK A01 T01830064  RH  045%=      5-min Rain = 0
KPD2 180503Z 14009KT 18/06 A2983 RMK A01 T01840063  RH  045%=      5-min Rain = 0
KPD2 180504Z 15006KT 19/06 A2983 RMK A01 T01860064  RH  045%=      5-min Rain = 0
KPD2 180505Z 14005G10KT 19/06 A2983 RMK A01 T01860064  RH  045%=      5-min Rain = 0
KPD2 180506Z 13004KT 19/06 A2983 RMK A01 T01850064  RH  045%=      5-min Rain = 0
KPD2 180507Z 11009KT 19/06 A2983 RMK A01 T01850064  RH  045%=      5-min Rain = 0
KPD2 180508Z 13011G18KT 18/06 A2983 RMK A01 T01840064  RH  045%=      5-min Rain = 0
KPD2 180509Z 14008KT 18/06 A2983 RMK A01 T01830064  RH  046%=      5-min Rain = 0
KPD2 180510Z 12006KT 18/06 A2983 RMK A01 T01830064  RH  045%=      5-min Rain = 0
KPD2 180511Z 16007KT 18/06 A2983 RMK A01 T01830064  RH  046%=      5-min Rain = 0
KPD2 180512Z 15005KT 18/06 A2983 RMK A01 T01830064  RH  046%=      5-min Rain = 0
KPD2 180513Z 13008KT 18/06 A2983 RMK A01 T01820064  RH  046%=      5-min Rain = 0
KPD2 180514Z 13008KT 18/06 A2983 RMK A01 T01810064  RH  046%=      5-min Rain = 0
KPD2 180515Z 12011KT 18/06 A2983 RMK A01 T01810064  RH  046%=      5-min Rain = 0
KPD2 180516Z 13009G14KT 18/06 A2982 RMK A01 T01810064  RH  046%=      5-min Rain = 0
KPD2 180517Z 16008KT 18/06 A2983 RMK A01 T01830064  RH  046%=      5-min Rain = 0
KPD2 180518Z 14007KT 18/06 A2982 RMK A01 T01840064  RH  046%=      5-min Rain = 0
KPD2 180519Z 13009KT 18/06 A2983 RMK A01 T01830064  RH  046%=      5-min Rain = 0
KPD2 180520Z 13007KT 18/06 A2982 RMK A01 T01830064  RH  046%=      5-min Rain = 0
KPD2 180521Z 14006G11KT 18/06 A2982 RMK A01 T01820064  RH  046%=      5-min Rain = 0
KPD2 180522Z 14010G18KT 18/06 A2982 RMK A01 T01830064  RH  046%=      5-min Rain = 0
KPD2 180523Z 16009KT 18/06 A2982 RMK A01 T01830064  RH  046%=      5-min Rain = 0
KPD2 180524Z 13009KT 18/06 A2982 RMK A01 T01830064  RH  046%=      5-min Rain = 0
KPD2 180525Z 12008KT 18/06 A2982 RMK A01 T01820064  RH  046%=      5-min Rain = 0
KPD2 180526Z 14008KT 18/06 A2982 RMK A01 T01810064  RH  046%=      5-min Rain = 0
KPD2 180527Z 18004KT 18/06 A2982 RMK A01 T01810064  RH  046%=      5-min Rain = 0
KPD2 180528Z 12008G17KT 18/06 A2982 RMK A01 T01810064  RH  046%=      5-min Rain = 0
KPD2 180529Z 13009G16KT 18/06 A2982 RMK A01 T01810064  RH  046%=      5-min Rain = 0
KPD2 180530Z 15007KT 18/06 A2982 RMK A01 T01810064  RH  046%=      5-min Rain = 0
KPD2 180531Z 14006KT 18/06 A2982 RMK A01 T01810064  RH  046%=      5-min Rain = 0
KPD2 180532Z 14010G16KT 18/06 A2982 RMK A01 T01810064  RH  046%=      5-min Rain = 0
KPD2 180533Z 13008G13KT 18/07 A2982 RMK A01 T01810065  RH  046%=      5-min Rain = 0
KPD2 180534Z 11010KT 18/06 A2982 RMK A01 T01810064  RH  046%=      5-min Rain = 0
KPD2 180535Z 12010G15KT 18/06 A2982 RMK A01 T01810064  RH  047%=      5-min Rain = 0
KPD2 180536Z 12004KT 18/07 A2982 RMK A01 T01810065  RH  047%=      5-min Rain = 0
KPD2 180537Z 13006KT 18/07 A2982 RMK A01 T01810065  RH  047%=      5-min Rain = 0
KPD2 180538Z 13006KT 18/07 A2982 RMK A01 T01800065  RH  047%=      5-min Rain = 0
KPD2 180539Z 12009G15KT 18/07 A2982 RMK A01 T01800065  RH  047%=      5-min Rain = 0
KPD2 180540Z 14005G12KT 18/07 A2982 RMK A01 T01790065  RH  047%=      5-min Rain = 0
KPD2 180541Z 12008G14KT 18/07 A2982 RMK A01 T01790065  RH  047%=      5-min Rain = 0
KPD2 180542Z 13011G19KT 18/07 A2982 RMK A01 T01790065  RH  047%=      5-min Rain = 0
KPD2 180543Z 13008G13KT 18/07 A2982 RMK A01 T01780065  RH  047%=      5-min Rain = 0
KPD2 180544Z 12007KT 18/07 A2982 RMK A01 T01780065  RH  047%=      5-min Rain = 0
KPD2 180545Z 15008KT 18/07 A2983 RMK A01 T01780065  RH  047%=      5-min Rain = 0
KPD2 180546Z 14005KT 18/07 A2982 RMK A01 T01780065  RH  048%=      5-min Rain = 0
KPD2 180547Z 11005KT 18/07 A2982 RMK A01 T01780065  RH  048%=      5-min Rain = 0
KPD2 180548Z 12007KT 18/07 A2982 RMK A01 T01780065  RH  048%=      5-min Rain = 0
KPD2 180549Z 12007G12KT 18/07 A2982 RMK A01 T01770065  RH  048%=      5-min Rain = 0
KPD2 180550Z 14010G16KT 18/07 A2982 RMK A01 T01770065  RH  048%=      5-min Rain = 0
KPD2 180551Z 15007KT 18/07 A2982 RMK A01 T01760065  RH  048%=      5-min Rain = 0
KPD2 180552Z 13008G14KT 18/07 A2982 RMK A01 T01770065  RH  048%=      5-min Rain = 0
KPD2 180553Z 18012KT 18/07 A2982 RMK A01 T01770065  RH  048%=      5-min Rain = 0
KPD2 180554Z 13008KT 18/07 A2982 RMK A01 T01770066  RH  048%=      5-min Rain = 0
KPD2 180555Z 13009KT 18/07 A2982 RMK A01 T01770065  RH  048%=      5-min Rain = 0
KPD2 180556Z 12006KT 18/07 A2982 RMK A01 T01770066  RH  048%=      5-min Rain = 0
KPD2 180557Z 13008KT 18/07 A2982 RMK A01 T01760065  RH  048%=      5-min Rain = 0
KPD2 180558Z 15008KT 18/07 A2982 RMK A01 T01760065  RH  048%=      5-min Rain = 0
KPD2 180559Z 11008G14KT 18/07 A2982 RMK A01 T01760065  RH  048%=      5-min Rain = 0
KPD2 180600Z 13006KT 18/07 A2982 RMK A01 T01750065  RH  049%=      5-min Rain = 0
KPD2 180601Z 14005KT 17/07 A2982 RMK A01 T01740066  RH  049%=      5-min Rain = 0
KPD2 180602Z 16005KT 17/07 A2982 RMK A01 T01740065  RH  049%=      5-min Rain = 0
KPD2 180603Z 11007G12KT 17/07 A2982 RMK A01 T01740065  RH  049%=      5-min Rain = 0
KPD2 180604Z 12008G13KT 17/07 A2981 RMK A01 T01740066  RH  049%=      5-min Rain = 0
KPD2 180605Z 14008KT 17/07 A2982 RMK A01 T01730066  RH  049%=      5-min Rain = 0
KPD2 180606Z 16006KT 17/07 A2982 RMK A01 T01730066  RH  049%=      5-min Rain = 0
KPD2 180607Z 11005KT 17/07 A2982 RMK A01 T01730066  RH  049%=      5-min Rain = 0
KPD2 180608Z 10008KT 17/07 A2982 RMK A01 T01730066  RH  049%=      5-min Rain = 0
KPD2 180609Z 12005KT 17/07 A2981 RMK A01 T01720066  RH  050%=      5-min Rain = 0
KPD2 180610Z 12011KT 17/07 A2981 RMK A01 T01720066  RH  050%=      5-min Rain = 0
KPD2 180611Z 14008KT 17/07 A2982 RMK A01 T01710066  RH  050%=      5-min Rain = 0
KPD2 180612Z 13006KT 17/07 A2982 RMK A01 T01710066  RH  050%=      5-min Rain = 0
KPD2 180613Z 13008G17KT 17/07 A2982 RMK A01 T01700066  RH  050%=      5-min Rain = 0
KPD2 180614Z 13004KT 17/07 A2982 RMK A01 T01700066  RH  050%=      5-min Rain = 0
KPD2 180615Z 12009KT 17/07 A2982 RMK A01 T01710066  RH  050%=      5-min Rain = 0
KPD2 180616Z 12008KT 17/07 A2981 RMK A01 T01710066  RH  050%=      5-min Rain = 0
KPD2 180617Z 13007G15KT 17/07 A2981 RMK A01 T01710066  RH  050%=      5-min Rain = 0
KPD2 180618Z 14009G14KT 17/07 A2982 RMK A01 T01710066  RH  050%=      5-min Rain = 0
KPD2 180619Z 14005KT 17/07 A2981 RMK A01 T01710066  RH  050%=      5-min Rain = 0
KPD2 180620Z 12007KT 17/07 A2982 RMK A01 T01710066  RH  050%=      5-min Rain = 0
KPD2 180621Z 12006KT 17/07 A2982 RMK A01 T01710066  RH  050%=      5-min Rain = 0
KPD2 180622Z 14005KT 17/07 A2982 RMK A01 T01710066  RH  050%=      5-min Rain = 0
KPD2 180623Z 12005KT 17/07 A2982 RMK A01 T01700066  RH  050%=      5-min Rain = 0
KPD2 180624Z 12009KT 17/07 A2981 RMK A01 T01700066  RH  050%=      5-min Rain = 0
KPD2 180625Z 12008KT 17/07 A2982 RMK A01 T01700067  RH  051%=      5-min Rain = 0
KPD2 180626Z 13009KT 17/07 A2982 RMK A01 T01690067  RH  051%=      5-min Rain = 0
KPD2 180627Z 15006KT 17/07 A2981 RMK A01 T01690067  RH  051%=      5-min Rain = 0
KPD2 180628Z 12003KT 17/07 A2981 RMK A01 T01690066  RH  051%=      5-min Rain = 0
KPD2 180629Z 12008G13KT 17/07 A2981 RMK A01 T01690067  RH  051%=      5-min Rain = 0
KPD2 180630Z 13006G12KT 17/07 A2981 RMK A01 T01690067  RH  051%=      5-min Rain = 0
KPD2 180631Z 11006KT 17/07 A2982 RMK A01 T01690067  RH  051%=      5-min Rain = 0
KPD2 180632Z 12007KT 17/07 A2981 RMK A01 T01680067  RH  051%=      5-min Rain = 0
KPD2 180633Z 14009KT 17/07 A2981 RMK A01 T01670067  RH  051%=      5-min Rain = 0
KPD2 180634Z 13004KT 17/07 A2981 RMK A01 T01670067  RH  051%=      5-min Rain = 0
KPD2 180635Z 12006KT 17/07 A2981 RMK A01 T01680067  RH  051%=      5-min Rain = 0
KPD2 180636Z 11007KT 17/07 A2981 RMK A01 T01680067  RH  051%=      5-min Rain = 0
KPD2 180637Z 12010KT 17/07 A2981 RMK A01 T01670067  RH  051%=      5-min Rain = 0
KPD2 180638Z 12008KT 17/07 A2981 RMK A01 T01670067  RH  052%=      5-min Rain = 0
KPD2 180639Z 14007KT 17/07 A2981 RMK A01 T01670067  RH  052%=      5-min Rain = 0
KPD2 180640Z 10005KT 17/07 A2981 RMK A01 T01670067  RH  052%=      5-min Rain = 0
KPD2 180641Z 12004KT 17/07 A2981 RMK A01 T01660067  RH  052%=      5-min Rain = 0
KPD2 180642Z 15005KT 17/07 A2981 RMK A01 T01660067  RH  052%=      5-min Rain = 0
KPD2 180643Z 15005KT 17/07 A2981 RMK A01 T01660067  RH  052%=      5-min Rain = 0
KPD2 180644Z 11006KT 17/07 A2981 RMK A01 T01660067  RH  052%=      5-min Rain = 0
KPD2 180645Z 12006KT 17/07 A2981 RMK A01 T01660067  RH  052%=      5-min Rain = 0
KPD2 180646Z 13007KT 17/07 A2981 RMK A01 T01660067  RH  052%=      5-min Rain = 0
KPD2 180647Z 10007KT 17/07 A2981 RMK A01 T01660067  RH  052%=      5-min Rain = 0
KPD2 180648Z 12009G14KT 17/07 A2981 RMK A01 T01650067  RH  052%=      5-min Rain = 0
KPD2 180649Z 15007KT 17/07 A2981 RMK A01 T01660067  RH  052%=      5-min Rain = 0
KPD2 180650Z 13006KT 17/07 A2981 RMK A01 T01660067  RH  052%=      5-min Rain = 0
KPD2 180651Z 11007KT 17/07 A2981 RMK A01 T01670067  RH  052%=      5-min Rain = 0
KPD2 180652Z 11008KT 17/07 A2981 RMK A01 T01660067  RH  052%=      5-min Rain = 0
KPD2 180653Z 15007KT 17/07 A2981 RMK A01 T01650067  RH  052%=      5-min Rain = 0
KPD2 180654Z 13007G14KT 17/07 A2981 RMK A01 T01650067  RH  052%=      5-min Rain = 0
KPD2 180655Z 12006KT 16/07 A2981 RMK A01 T01640067  RH  052%=      5-min Rain = 0
KPD2 180656Z 12010KT 17/07 A2981 RMK A01 T01650066  RH  052%=      5-min Rain = 0
KPD2 180657Z 12004KT 17/07 A2981 RMK A01 T01650067  RH  052%=      5-min Rain = 0
KPD2 180658Z 12005KT 17/07 A2981 RMK A01 T01660067  RH  052%=      5-min Rain = 0
KPD2 180659Z 12009KT 17/07 A2981 RMK A01 T01660067  RH  052%=      5-min Rain = 0
KPD2 180700Z 14008KT 17/07 A2981 RMK A01 T01660067  RH  052%=      5-min Rain = 0
KPD2 180701Z 13006G11KT 17/07 A2981 RMK A01 T01660067  RH  052%=      5-min Rain = 0
KPD2 180702Z 13005KT 17/07 A2981 RMK A01 T01660067  RH  052%=      5-min Rain = 0
KPD2 180703Z 14003KT 17/07 A2981 RMK A01 T01650066  RH  052%=      5-min Rain = 0
KPD2 180704Z 13006KT 16/07 A2981 RMK A01 T01640066  RH  052%=      5-min Rain = 0
KPD2 180705Z 13007KT 16/07 A2981 RMK A01 T01630066  RH  053%=      5-min Rain = 0
KPD2 180706Z 13008KT 16/07 A2981 RMK A01 T01630067  RH  053%=      5-min Rain = 0
KPD2 180707Z 12005KT 16/07 A2981 RMK A01 T01620066  RH  053%=      5-min Rain = 0
KPD2 180708Z 11007KT 16/07 A2981 RMK A01 T01630066  RH  053%=      5-min Rain = 0
KPD2 180709Z 12007KT 16/07 A2981 RMK A01 T01630066  RH  053%=      5-min Rain = 0
KPD2 180710Z 15004KT 16/07 A2981 RMK A01 T01630066  RH  053%=      5-min Rain = 0
KPD2 180711Z 12005KT 16/07 A2981 RMK A01 T01630067  RH  053%=      5-min Rain = 0
KPD2 180712Z 11005KT 16/07 A2981 RMK A01 T01630066  RH  053%=      5-min Rain = 0
KPD2 180713Z 12010KT 16/07 A2981 RMK A01 T01640067  RH  053%=      5-min Rain = 0
KPD2 180714Z 14007KT 16/07 A2981 RMK A01 T01630066  RH  053%=      5-min Rain = 0
KPD2 180715Z 13008G13KT 16/07 A2981 RMK A01 T01640066  RH  052%=      5-min Rain = 0
KPD2 180716Z 15006KT 16/07 A2981 RMK A01 T01640066  RH  052%=      5-min Rain = 0
KPD2 180717Z 14006KT 16/07 A2981 RMK A01 T01640066  RH  052%=      5-min Rain = 0
KPD2 180718Z 15004KT 16/07 A2981 RMK A01 T01640067  RH  052%=      5-min Rain = 0
KPD2 180719Z 13006KT 16/07 A2981 RMK A01 T01640066  RH  052%=      5-min Rain = 0
KPD2 180720Z 13005KT 16/07 A2981 RMK A01 T01640066  RH  052%=      5-min Rain = 0
KPD2 180721Z 13006KT 16/07 A2981 RMK A01 T01640066  RH  052%=      5-min Rain = 0
KPD2 180722Z 12007KT 16/07 A2981 RMK A01 T01640066  RH  052%=      5-min Rain = 0
KPD2 180723Z 12008G13KT 16/07 A2981 RMK A01 T01640066  RH  052%=      5-min Rain = 0
KPD2 180724Z 12006KT 16/07 A2981 RMK A01 T01630066  RH  053%=      5-min Rain = 0
KPD2 180725Z 13007KT 16/07 A2981 RMK A01 T01630066  RH  053%=      5-min Rain = 0
KPD2 180726Z 17006KT 16/07 A2981 RMK A01 T01630066  RH  053%=      5-min Rain = 0
KPD2 180727Z 14006KT 16/07 A2981 RMK A01 T01630066  RH  052%=      5-min Rain = 0
KPD2 180728Z 14007KT 16/07 A2981 RMK A01 T01640066  RH  052%=      5-min Rain = 0
KPD2 180729Z 15007KT 16/07 A2981 RMK A01 T01640066  RH  052%=      5-min Rain = 0
KPD2 180730Z 12007G12KT 16/07 A2981 RMK A01 T01640066  RH  052%=      5-min Rain = 0
KPD2 180731Z 14006KT 16/07 A2981 RMK A01 T01640066  RH  052%=      5-min Rain = 0
KPD2 180732Z 14007KT 16/07 A2981 RMK A01 T01640066  RH  052%=      5-min Rain = 0
KPD2 180733Z 12005KT 16/07 A2981 RMK A01 T01640066  RH  052%=      5-min Rain = 0
KPD2 180734Z 12004G10KT 16/07 A2981 RMK A01 T01640066  RH  052%=      5-min Rain = 0
KPD2 180735Z 14009KT 16/07 A2981 RMK A01 T01640066  RH  052%=      5-min Rain = 0
KPD2 180736Z 16003KT 16/07 A2981 RMK A01 T01640066  RH  052%=      5-min Rain = 0
KPD2 180737Z 14003KT 16/07 A2981 RMK A01 T01640066  RH  052%=      5-min Rain = 0
KPD2 180738Z 15007G12KT 16/07 A2981 RMK A01 T01640066  RH  052%=      5-min Rain = 0
KPD2 180739Z 14006KT 16/07 A2981 RMK A01 T01640066  RH  052%=      5-min Rain = 0
KPD2 180740Z 17004KT 16/07 A2981 RMK A01 T01640066  RH  052%=      5-min Rain = 0
KPD2 180741Z 13005KT 16/07 A2981 RMK A01 T01640066  RH  052%=      5-min Rain = 0
KPD2 180742Z 12005G12KT 16/07 A2981 RMK A01 T01640065  RH  052%=      5-min Rain = 0
KPD2 180743Z 13008G15KT 16/07 A2981 RMK A01 T01640065  RH  052%=      5-min Rain = 0
KPD2 180744Z 12008KT 16/07 A2981 RMK A01 T01640066  RH  052%=      5-min Rain = 0
KPD2 180745Z 14006KT 16/07 A2981 RMK A01 T01640066  RH  052%=      5-min Rain = 0
KPD2 180746Z 11005KT 16/07 A2981 RMK A01 T01640066  RH  052%=      5-min Rain = 0
KPD2 180747Z 15004KT 16/07 A2981 RMK A01 T01640066  RH  052%=      5-min Rain = 0
KPD2 180748Z 13005G10KT 16/07 A2981 RMK A01 T01630065  RH  052%=      5-min Rain = 0
KPD2 180749Z 13007KT 16/07 A2981 RMK A01 T01630066  RH  053%=      5-min Rain = 0
KPD2 180750Z 14006KT 16/07 A2981 RMK A01 T01620065  RH  053%=      5-min Rain = 0
KPD2 180751Z 14007KT 16/07 A2981 RMK A01 T01620065  RH  053%=      5-min Rain = 0
KPD2 180752Z 15008KT 16/07 A2981 RMK A01 T01630065  RH  052%=      5-min Rain = 0
KPD2 180753Z 15005KT 16/07 A2981 RMK A01 T01630065  RH  052%=      5-min Rain = 0
KPD2 180754Z 13004KT 16/07 A2981 RMK A01 T01620066  RH  053%=      5-min Rain = 0
KPD2 180755Z 16004KT 16/07 A2981 RMK A01 T01620066  RH  053%=      5-min Rain = 0
KPD2 180756Z 15005KT 16/07 A2981 RMK A01 T01620066  RH  053%=      5-min Rain = 0
KPD2 180757Z 13009KT 16/07 A2981 RMK A01 T01610066  RH  053%=      5-min Rain = 0
KPD2 180758Z 17010KT 16/07 A2981 RMK A01 T01610066  RH  053%=      5-min Rain = 0
KPD2 180759Z 17008KT 16/07 A2981 RMK A01 T01620066  RH  053%=      5-min Rain = 0
KPD2 180800Z 13007KT 16/07 A298 RMK A01 T01630066  RH  053%=      5-min Rain = 0
KPD2 180801Z 15006KT 16/07 A298 RMK A01 T01640066  RH  052%=      5-min Rain = 0
KPD2 180802Z 14004KT 16/07 A298 RMK A01 T01640066  RH  052%=      5-min Rain = 0
KPD2 180803Z 12005KT 16/07 A298 RMK A01 T01630066  RH  053%=      5-min Rain = 0
KPD2 180804Z 12004KT 16/07 A298 RMK A01 T01620066  RH  053%=      5-min Rain = 0
KPD2 180805Z 15007KT 16/07 A298 RMK A01 T01610066  RH  053%=      5-min Rain = 0
KPD2 180806Z 12007KT 16/07 A298 RMK A01 T01610066  RH  053%=      5-min Rain = 0
KPD2 180807Z 12007KT 16/07 A298 RMK A01 T01610066  RH  053%=      5-min Rain = 0
KPD2 180808Z 11006KT 16/07 A298 RMK A01 T01600066  RH  054%=      5-min Rain = 0
KPD2 180809Z 13008G13KT 16/07 A298 RMK A01 T01600066  RH  054%=      5-min Rain = 0
KPD2 180810Z 15004KT 16/07 A298 RMK A01 T01600067  RH  054%=      5-min Rain = 0
KPD2 180811Z 13006KT 16/07 A298 RMK A01 T01600066  RH  054%=      5-min Rain = 0
KPD2 180812Z 12008KT 16/07 A298 RMK A01 T01600067  RH  054%=      5-min Rain = 0
KPD2 180813Z 15005KT 16/07 A298 RMK A01 T01600067  RH  054%=      5-min Rain = 0
KPD2 180814Z 13005KT 16/07 A298 RMK A01 T01600067  RH  054%=      5-min Rain = 0
KPD2 180815Z 15003KT 16/07 A298 RMK A01 T01590067  RH  054%=      5-min Rain = 0
KPD2 180816Z 15008G14KT 16/07 A298 RMK A01 T01600068  RH  054%=      5-min Rain = 0
KPD2 180817Z 13008KT 16/07 A298 RMK A01 T01590067  RH  054%=      5-min Rain = 0
KPD2 180818Z 12006KT 16/07 A298 RMK A01 T01600068  RH  054%=      5-min Rain = 0
KPD2 180819Z 15003KT 16/07 A298 RMK A01 T01600068  RH  054%=      5-min Rain = 0
KPD2 180820Z 14004KT 16/07 A298 RMK A01 T01600068  RH  054%=      5-min Rain = 0
KPD2 180821Z 18004KT 16/07 A298 RMK A01 T01600068  RH  054%=      5-min Rain = 0
KPD2 180822Z 16008KT 16/07 A298 RMK A01 T01600068  RH  054%=      5-min Rain = 0
KPD2 180823Z 12014G19KT 16/07 A298 RMK A01 T01610069  RH  054%=      5-min Rain = 0
KPD2 180824Z 15006G11KT 16/07 A298 RMK A01 T01610069  RH  054%=      5-min Rain = 0
KPD2 180825Z 14011G18KT 16/07 A298 RMK A01 T01630069  RH  054%=      5-min Rain = 0
KPD2 180826Z 15012KT 16/07 A298 RMK A01 T01630069  RH  054%=      5-min Rain = 0
KPD2 180827Z 19010KT 16/07 A298 RMK A01 T01640070  RH  054%=      5-min Rain = 0
KPD2 180828Z 19003G8KT 16/07 A2979 RMK A01 T01640069  RH  053%=      5-min Rain = 0
KPD2 180829Z 12008G13KT 16/07 A2979 RMK A01 T01640070  RH  053%=      5-min Rain = 0
KPD2 180830Z 14010KT 16/07 A2979 RMK A01 T01640070  RH  054%=      5-min Rain = 0
KPD2 180831Z 13008G13KT 16/07 A2979 RMK A01 T01630070  RH  054%=      5-min Rain = 0
KPD2 180832Z 12008G14KT 16/07 A2979 RMK A01 T01620070  RH  054%=      5-min Rain = 0
KPD2 180833Z 15009G17KT 16/07 A2979 RMK A01 T01620071  RH  055%=      5-min Rain = 0
KPD2 180834Z 18011KT 16/07 A2979 RMK A01 T01630071  RH  054%=      5-min Rain = 0
KPD2 180835Z 16006KT 16/07 A2979 RMK A01 T01630072  RH  055%=      5-min Rain = 0
KPD2 180836Z 15007KT 16/07 A2979 RMK A01 T01640072  RH  054%=      5-min Rain = 0
KPD2 180837Z 16005KT 16/07 A2979 RMK A01 T01640071  RH  054%=      5-min Rain = 0
KPD2 180838Z 12006KT 16/07 A2979 RMK A01 T01630071  RH  054%=      5-min Rain = 0
KPD2 180839Z 12008KT 16/07 A2979 RMK A01 T01620071  RH  055%=      5-min Rain = 0
KPD2 180840Z 14008KT 16/07 A2979 RMK A01 T01610071  RH  055%=      5-min Rain = 0
KPD2 180841Z 13007KT 16/07 A2979 RMK A01 T01600071  RH  055%=      5-min Rain = 0
KPD2 180842Z 14007KT 16/07 A2979 RMK A01 T01600071  RH  055%=      5-min Rain = 0
KPD2 180843Z 12005KT 16/07 A2979 RMK A01 T01590071  RH  056%=      5-min Rain = 0
KPD2 180844Z 14006KT 16/07 A2979 RMK A01 T01590071  RH  056%=      5-min Rain = 0
KPD2 180845Z 13007KT 16/07 A2979 RMK A01 T01590072  RH  056%=      5-min Rain = 0
KPD2 180846Z 12006KT 16/07 A2979 RMK A01 T01590072  RH  056%=      5-min Rain = 0
KPD2 180847Z 14005KT 16/07 A2979 RMK A01 T01590072  RH  056%=      5-min Rain = 0
KPD2 180848Z 15004KT 16/07 A2979 RMK A01 T01590073  RH  057%=      5-min Rain = 0
KPD2 180849Z 11004KT 16/07 A2979 RMK A01 T01590073  RH  057%=      5-min Rain = 0
KPD2 180850Z 15004KT 16/07 A2979 RMK A01 T01600073  RH  056%=      5-min Rain = 0
KPD2 180851Z 17006KT 16/07 A2979 RMK A01 T01600074  RH  056%=      5-min Rain = 0
KPD2 180852Z 17003KT 16/07 A2979 RMK A01 T01610074  RH  056%=      5-min Rain = 0
KPD2 180853Z 16004G11KT 16/07 A2979 RMK A01 T01610074  RH  056%=      5-min Rain = 0
KPD2 180854Z 14010KT 16/08 A2979 RMK A01 T01610076  RH  057%=      5-min Rain = 0
KPD2 180855Z 16006KT 16/08 A2979 RMK A01 T01610076  RH  057%=      5-min Rain = 0
KPD2 180856Z 13004KT 16/08 A2979 RMK A01 T01620076  RH  057%=      5-min Rain = 0
KPD2 180857Z 12002KT 16/08 A2979 RMK A01 T01620077  RH  057%=      5-min Rain = 0
KPD2 180858Z 18008KT 16/08 A2979 RMK A01 T01630077  RH  057%=      5-min Rain = 0
KPD2 180859Z 18008KT 16/08 A2979 RMK A01 T01640078  RH  057%=      5-min Rain = 0
KPD2 180900Z 15006KT 17/08 A2979 RMK A01 T01650078  RH  057%=      5-min Rain = 0
KPD2 180901Z 14004KT 17/08 A2979 RMK A01 T01650078  RH  056%=      5-min Rain = 0
KPD2 180902Z 11007G12KT 17/08 A2979 RMK A01 T01650078  RH  056%=      5-min Rain = 0
KPD2 180903Z 12006KT 16/08 A2979 RMK A01 T01640077  RH  057%=      5-min Rain = 0
KPD2 180904Z 22004G9KT 16/08 A2979 RMK A01 T01630078  RH  057%=      5-min Rain = 0
KPD2 180905Z 16004G10KT 16/08 A2979 RMK A01 T01630078  RH  057%=      5-min Rain = 0
KPD2 180906Z 12006KT 16/08 A2978 RMK A01 T01630078  RH  057%=      5-min Rain = 0
KPD2 180907Z 15004KT 16/08 A2979 RMK A01 T01630078  RH  057%=      5-min Rain = 0
KPD2 180908Z 16005KT 16/08 A2979 RMK A01 T01630078  RH  057%=      5-min Rain = 0
KPD2 180909Z 11007KT 16/08 A2978 RMK A01 T01620078  RH  057%=      5-min Rain = 0
KPD2 180910Z 11008KT 16/08 A2978 RMK A01 T01600077  RH  058%=      5-min Rain = 0
KPD2 180911Z 16008KT 16/08 A2978 RMK A01 T01600078  RH  058%=      5-min Rain = 0
KPD2 180912Z 14009KT 16/08 A2978 RMK A01 T01600079  RH  058%=      5-min Rain = 0
KPD2 180913Z 21006KT 16/08 A2978 RMK A01 T01600079  RH  058%=      5-min Rain = 0
KPD2 180914Z 13003KT 16/08 A2978 RMK A01 T01600079  RH  059%=      5-min Rain = 0
KPD2 180915Z 12006KT 16/08 A2978 RMK A01 T01600079  RH  058%=      5-min Rain = 0
KPD2 180916Z 12006KT 16/08 A2978 RMK A01 T01600078  RH  058%=      5-min Rain = 0
KPD2 180917Z 14006KT 16/08 A2978 RMK A01 T01590079  RH  059%=      5-min Rain = 0
KPD2 180918Z 13008KT 16/08 A2978 RMK A01 T01580081  RH  060%=      5-min Rain = 0
KPD2 180919Z 13007KT 16/08 A2978 RMK A01 T01580081  RH  060%=      5-min Rain = 0
KPD2 180920Z 11005KT 16/08 A2978 RMK A01 T01590081  RH  060%=      5-min Rain = 0
KPD2 180921Z 21005KT 16/08 A2978 RMK A01 T01600082  RH  060%=      5-min Rain = 0
KPD2 180922Z 18004KT 16/08 A2978 RMK A01 T01600082  RH  060%=      5-min Rain = 0
KPD2 180923Z 17002KT 16/08 A2978 RMK A01 T01610082  RH  059%=      5-min Rain = 0
KPD2 180924Z 20002KT 16/08 A2978 RMK A01 T01610082  RH  059%=      5-min Rain = 0
KPD2 180925Z 31001KT 16/08 A2978 RMK A01 T01610083  RH  060%=      5-min Rain = 0
KPD2 180926Z 30002KT 16/08 A2978 RMK A01 T01600083  RH  060%=      5-min Rain = 0
KPD2 180927Z 11003KT 16/08 A2978 RMK A01 T01600084  RH  061%=      5-min Rain = 0
KPD2 180928Z 12006KT 16/08 A2977 RMK A01 T01610084  RH  060%=      5-min Rain = 0
KPD2 180929Z 09002KT 16/09 A2977 RMK A01 T01610085  RH  060%=      5-min Rain = 0
KPD2 180930Z 15003KT 16/09 A2977 RMK A01 T01610085  RH  060%=      5-min Rain = 0
KPD2 180931Z 15007KT 16/08 A2977 RMK A01 T01610084  RH  060%=      5-min Rain = 0
KPD2 180932Z 21005KT 16/08 A2978 RMK A01 T01610084  RH  060%=      5-min Rain = 0
KPD2 180933Z 23003KT 16/09 A2977 RMK A01 T01610086  RH  061%=      5-min Rain = 0
KPD2 180934Z 15003KT 16/09 A2977 RMK A01 T01620086  RH  061%=      5-min Rain = 0
KPD2 180935Z 18003KT 16/09 A2977 RMK A01 T01620086  RH  060%=      5-min Rain = 0
KPD2 180936Z 14003KT 16/09 A2977 RMK A01 T01620086  RH  060%=      5-min Rain = 0
KPD2 180937Z 10004KT 16/09 A2977 RMK A01 T01620086  RH  061%=      5-min Rain = 0
KPD2 180938Z 13003KT 16/09 A2977 RMK A01 T01610086  RH  061%=      5-min Rain = 0
KPD2 180939Z 12003KT 16/09 A2977 RMK A01 T01600085  RH  061%=      5-min Rain = 0
KPD2 180940Z 19008G14KT 16/09 A2977 RMK A01 T01590086  RH  062%=      5-min Rain = 0
KPD2 180941Z 19002KT 16/09 A2977 RMK A01 T01600087  RH  062%=      5-min Rain = 0
KPD2 180942Z 02000KT 16/09 A2977 RMK A01 T01610087  RH  061%=      5-min Rain = 0
KPD2 180943Z 10001KT 16/09 A2977 RMK A01 T01610087  RH  061%=      5-min Rain = 0
KPD2 180944Z 05002KT 16/09 A2977 RMK A01 T01610087  RH  061%=      5-min Rain = 0
KPD2 180945Z 14002KT 16/09 A2977 RMK A01 T01600087  RH  062%=      5-min Rain = 0
KPD2 180946Z 19002KT 16/09 A2977 RMK A01 T01600087  RH  062%=      5-min Rain = 0
KPD2 180947Z 21000KT 16/09 A2977 RMK A01 T01590087  RH  062%=      5-min Rain = 0
KPD2 180948Z 30001KT 16/09 A2977 RMK A01 T01590087  RH  062%=      5-min Rain = 0
KPD2 180949Z 34003G8KT 16/09 A2977 RMK A01 T01590087  RH  062%=      5-min Rain = 0
KPD2 180950Z 10004KT 16/09 A2977 RMK A01 T01590088  RH  063%=      5-min Rain = 0
KPD2 180951Z 12004KT 16/09 A2977 RMK A01 T01580087  RH  063%=      5-min Rain = 0
KPD2 180952Z 15005G12KT 16/09 A2977 RMK A01 T01580088  RH  063%=      5-min Rain = 0
KPD2 180953Z 20006KT 16/09 A2977 RMK A01 T01590090  RH  063%=      5-min Rain = 0
KPD2 180954Z 25003KT 16/09 A2977 RMK A01 T01610090  RH  063%=      5-min Rain = 0
KPD2 180955Z 24004KT 16/09 A2977 RMK A01 T01610090  RH  063%=      5-min Rain = 0
KPD2 180956Z 24003KT 16/09 A2977 RMK A01 T01620090  RH  062%=      5-min Rain = 0
KPD2 180957Z 27002KT 16/09 A2977 RMK A01 T01620090  RH  062%=      5-min Rain = 0
KPD2 180958Z 27002KT 16/09 A2977 RMK A01 T01620090  RH  062%=      5-min Rain = 0
KPD2 180959Z 16002KT 16/09 A2977 RMK A01 T01610090  RH  063%=      5-min Rain = 0
KPD2 181000Z 10005KT 16/09 A2977 RMK A01 T01600090  RH  063%=      5-min Rain = 0
KPD2 181001Z 22003KT 16/09 A2977 RMK A01 T01600091  RH  063%=      5-min Rain = 0
KPD2 181002Z 23005KT 16/09 A2977 RMK A01 T01610091  RH  063%=      5-min Rain = 0
KPD2 181003Z 23007G12KT 16/09 A2977 RMK A01 T01610091  RH  063%=      5-min Rain = 0
KPD2 181004Z 21005KT 16/09 A2977 RMK A01 T01630092  RH  063%=      5-min Rain = 0
KPD2 181005Z 15006KT 16/09 A2977 RMK A01 T01640092  RH  062%=      5-min Rain = 0
KPD2 181006Z 20004G10KT 17/09 A2977 RMK A01 T01650092  RH  062%=      5-min Rain = 0
KPD2 181007Z 25010G15KT 16/09 A2977 RMK A01 T01640092  RH  062%=      5-min Rain = 0
KPD2 181008Z 20007G12KT 17/09 A2977 RMK A01 T01650092  RH  062%=      5-min Rain = 0
KPD2 181009Z 15006KT 16/09 A2977 RMK A01 T01640092  RH  062%=      5-min Rain = 0
KPD2 181010Z 19010G15KT 17/09 A2977 RMK A01 T01650093  RH  062%=      5-min Rain = 0
KPD2 181011Z 22010KT 17/09 A2977 RMK A01 T01650092  RH  062%=      5-min Rain = 0
KPD2 181012Z 18006KT 16/09 A2977 RMK A01 T01640092  RH  062%=      5-min Rain = 0
KPD2 181013Z 17005G10KT 16/09 A2977 RMK A01 T01640092  RH  062%=      5-min Rain = 0
KPD2 181014Z 20006G11KT 16/09 A2977 RMK A01 T01640092  RH  063%=      5-min Rain = 0
KPD2 181015Z 20011G17KT 16/09 A2977 RMK A01 T01630092  RH  063%=      5-min Rain = 0
KPD2 181016Z 19011G18KT 16/09 A2977 RMK A01 T01630093  RH  063%=      5-min Rain = 0
KPD2 181017Z 18006KT 16/09 A2977 RMK A01 T01630093  RH  063%=      5-min Rain = 0
KPD2 181018Z 15003KT 16/09 A2977 RMK A01 T01630093  RH  063%=      5-min Rain = 0
KPD2 181019Z 19002KT 16/09 A2977 RMK A01 T01630093  RH  063%=      5-min Rain = 0
KPD2 181020Z 18009KT 16/09 A2977 RMK A01 T01630093  RH  063%=      5-min Rain = 0
KPD2 181021Z 19005KT 16/09 A2977 RMK A01 T01630093  RH  063%=      5-min Rain = 0
KPD2 181022Z 20005KT 16/09 A2977 RMK A01 T01630093  RH  063%=      5-min Rain = 0
KPD2 181023Z 11003KT 16/09 A2976 RMK A01 T01630093  RH  063%=      5-min Rain = 0
KPD2 181024Z 21003G9KT 16/09 A2977 RMK A01 T01640094  RH  063%=      5-min Rain = 0
KPD2 181025Z 19007G12KT 16/09 A2977 RMK A01 T01640093  RH  063%=      5-min Rain = 0
KPD2 181026Z 19008G16KT 16/09 A2977 RMK A01 T01630094  RH  063%=      5-min Rain = 0
KPD2 181027Z 20009G17KT 16/09 A2977 RMK A01 T01630094  RH  064%=      5-min Rain = 0
KPD2 181028Z 18010G18KT 16/09 A2977 RMK A01 T01630094  RH  064%=      5-min Rain = 0
KPD2 181029Z 18010G21KT 16/10 A2976 RMK A01 T01640095  RH  063%=      5-min Rain = 0
KPD2 181030Z 22007G13KT 17/09 A2976 RMK A01 T01650094  RH  063%=      5-min Rain = 0
KPD2 181031Z 18008KT 17/09 A2976 RMK A01 T01650094  RH  063%=      5-min Rain = 0
KPD2 181032Z 21006G11KT 17/09 A2976 RMK A01 T01650094  RH  063%=      5-min Rain = 0
KPD2 181033Z 20005KT 16/09 A2976 RMK A01 T01640094  RH  063%=      5-min Rain = 0
KPD2 181034Z 15004KT 16/09 A2976 RMK A01 T01630094  RH  064%=      5-min Rain = 0
KPD2 181035Z 20006G12KT 16/09 A2976 RMK A01 T01630094  RH  064%=      5-min Rain = 0
KPD2 181036Z 20008G13KT 16/09 A2976 RMK A01 T01620094  RH  064%=      5-min Rain = 0
KPD2 181037Z 19008G14KT 16/10 A2976 RMK A01 T01630095  RH  064%=      5-min Rain = 0
KPD2 181038Z 17004KT 16/10 A2976 RMK A01 T01640095  RH  064%=      5-min Rain = 0
KPD2 181039Z 24006KT 16/10 A2976 RMK A01 T01640095  RH  064%=      5-min Rain = 0
KPD2 181040Z 17006KT 16/10 A2977 RMK A01 T01640095  RH  064%=      5-min Rain = 0
KPD2 181041Z 18010G16KT 16/10 A2976 RMK A01 T01640095  RH  064%=      5-min Rain = 0
KPD2 181042Z 18007G12KT 16/10 A2976 RMK A01 T01640096  RH  064%=      5-min Rain = 0
KPD2 181043Z 19006G13KT 16/10 A2976 RMK A01 T01630095  RH  064%=      5-min Rain = 0
KPD2 181044Z 21009KT 16/10 A2976 RMK A01 T01630095  RH  064%=      5-min Rain = 0
KPD2 181045Z 21009G15KT 16/10 A2976 RMK A01 T01630095  RH  064%=      5-min Rain = 0
KPD2 181046Z 19006KT 16/10 A2976 RMK A01 T01630096  RH  064%=      5-min Rain = 0
KPD2 181047Z 20003KT 16/10 A2977 RMK A01 T01630096  RH  064%=      5-min Rain = 0
KPD2 181048Z 14007G12KT 16/10 A2976 RMK A01 T01620095  RH  065%=      5-min Rain = 0
KPD2 181049Z 19010G15KT 16/10 A2976 RMK A01 T01610095  RH  065%=      5-min Rain = 0
KPD2 181050Z 20007KT 16/10 A2976 RMK A01 T01620096  RH  065%=      5-min Rain = 0
KPD2 181051Z 20011KT 16/10 A2976 RMK A01 T01620095  RH  065%=      5-min Rain = 0
KPD2 181052Z 20008KT 16/10 A2977 RMK A01 T01620095  RH  065%=      5-min Rain = 0
KPD2 181053Z 16010G16KT 16/10 A2976 RMK A01 T01630096  RH  065%=      5-min Rain = 0
KPD2 181054Z 16010G19KT 16/10 A2976 RMK A01 T01630096  RH  065%=      5-min Rain = 0
KPD2 181055Z 21006KT 16/10 A2977 RMK A01 T01640096  RH  064%=      5-min Rain = 0
KPD2 181056Z 24004KT 16/10 A2976 RMK A01 T01640096  RH  064%=      5-min Rain = 0
KPD2 181057Z 18005G11KT 16/10 A2976 RMK A01 T01640096  RH  064%=      5-min Rain = 0
KPD2 181058Z 19008G18KT 16/10 A2977 RMK A01 T01630097  RH  065%=      5-min Rain = 0
KPD2 181059Z 19011G16KT 16/10 A2976 RMK A01 T01630097  RH  065%=      5-min Rain = 0
KPD2 181100Z 18007KT 16/10 A2976 RMK A01 T01640097  RH  065%=      5-min Rain = 0
KPD2 181101Z 18006KT 16/10 A2976 RMK A01 T01640097  RH  064%=      5-min Rain = 0
KPD2 181102Z 21006G14KT 16/10 A2976 RMK A01 T01640097  RH  064%=      5-min Rain = 0
KPD2 181103Z 18004KT 16/10 A2976 RMK A01 T01630097  RH  065%=      5-min Rain = 0
KPD2 181104Z 19006G12KT 16/10 A2976 RMK A01 T01630097  RH  065%=      5-min Rain = 0
KPD2 181105Z 18012KT 16/10 A2976 RMK A01 T01620097  RH  065%=      5-min Rain = 0
KPD2 181106Z 17007KT 16/10 A2976 RMK A01 T01620097  RH  065%=      5-min Rain = 0
KPD2 181107Z 18006KT 16/10 A2977 RMK A01 T01630097  RH  065%=      5-min Rain = 0
KPD2 181108Z 17009G15KT 16/10 A2976 RMK A01 T01630097  RH  065%=      5-min Rain = 0
KPD2 181109Z 18006G11KT 16/10 A2976 RMK A01 T01620097  RH  065%=      5-min Rain = 0
KPD2 181110Z 26001KT 16/10 A2977 RMK A01 T01620097  RH  065%=      5-min Rain = 0
KPD2 181111Z 14002KT 16/10 A2977 RMK A01 T01610096  RH  065%=      5-min Rain = 0
KPD2 181112Z 11003KT 16/10 A2977 RMK A01 T01600096  RH  066%=      5-min Rain = 0
KPD2 181113Z 28002KT 16/10 A2976 RMK A01 T01590096  RH  066%=      5-min Rain = 0
KPD2 181114Z 36003KT 16/10 A2976 RMK A01 T01580096  RH  067%=      5-min Rain = 0
KPD2 181115Z 21008G14KT 16/10 A2977 RMK A01 T01570096  RH  067%=      5-min Rain = 0
KPD2 181116Z 25004KT 16/10 A2976 RMK A01 T01580097  RH  067%=      5-min Rain = 0
KPD2 181117Z 14005KT 16/10 A2976 RMK A01 T01590097  RH  067%=      5-min Rain = 0
KPD2 181118Z 18004KT 16/10 A2976 RMK A01 T01600097  RH  066%=      5-min Rain = 0
KPD2 181119Z 18003KT 16/10 A2976 RMK A01 T01600097  RH  066%=      5-min Rain = 0
KPD2 181120Z 18003KT 16/10 A2977 RMK A01 T01590097  RH  066%=      5-min Rain = 0
KPD2 181121Z 20005KT 16/10 A2977 RMK A01 T01590097  RH  067%=      5-min Rain = 0
KPD2 181122Z 15005G11KT 16/10 A2976 RMK A01 T01600097  RH  066%=      5-min Rain = 0
KPD2 181123Z 23007KT 16/10 A2976 RMK A01 T01600097  RH  066%=      5-min Rain = 0
KPD2 181124Z 24003KT 16/10 A2976 RMK A01 T01600097  RH  066%=      5-min Rain = 0
KPD2 181125Z 17006G11KT 16/10 A2976 RMK A01 T01600097  RH  066%=      5-min Rain = 0
KPD2 181126Z 24007KT 16/10 A2976 RMK A01 T01600097  RH  066%=      5-min Rain = 0
KPD2 181127Z 17004KT 16/10 A2976 RMK A01 T01600097  RH  066%=      5-min Rain = 0
KPD2 181128Z 19009G16KT 16/10 A2977 RMK A01 T01600097  RH  066%=      5-min Rain = 0
KPD2 181129Z 21008G13KT 16/10 A2976 RMK A01 T01590097  RH  066%=      5-min Rain = 0
KPD2 181130Z 17007G14KT 16/10 A2976 RMK A01 T01600097  RH  066%=      5-min Rain = 0
KPD2 181131Z 21007G16KT 16/10 A2976 RMK A01 T01600097  RH  066%=      5-min Rain = 0
KPD2 181132Z 16005KT 16/10 A2976 RMK A01 T01600097  RH  066%=      5-min Rain = 0
KPD2 181133Z 19005KT 16/10 A2976 RMK A01 T01600097  RH  066%=      5-min Rain = 0
KPD2 181134Z 22008G13KT 16/10 A2976 RMK A01 T01600097  RH  066%=      5-min Rain = 0
KPD2 181135Z 15005KT 16/10 A2976 RMK A01 T01600097  RH  066%=      5-min Rain = 0
KPD2 181136Z 19008KT 16/10 A2976 RMK A01 T01600097  RH  066%=      5-min Rain = 0
KPD2 181137Z 27004KT 16/10 A2976 RMK A01 T01590097  RH  067%=      5-min Rain = 0
KPD2 181138Z 16005G10KT 16/10 A2976 RMK A01 T01580097  RH  067%=      5-min Rain = 0
KPD2 181139Z 20004G11KT 16/10 A2976 RMK A01 T01580097  RH  067%=      5-min Rain = 0
KPD2 181140Z 17008G14KT 16/10 A2976 RMK A01 T01590097  RH  066%=      5-min Rain = 0
KPD2 181141Z 19005G13KT 16/10 A2976 RMK A01 T01600097  RH  066%=      5-min Rain = 0
KPD2 181142Z 17007G13KT 16/10 A2976 RMK A01 T01600096  RH  066%=      5-min Rain = 0
KPD2 181143Z 20009KT 16/10 A2976 RMK A01 T01600096  RH  066%=      5-min Rain = 0
KPD2 181144Z 15006KT 16/10 A2976 RMK A01 T01610096  RH  065%=      5-min Rain = 0
KPD2 181145Z 18006KT 16/10 A2976 RMK A01 T01620096  RH  065%=      5-min Rain = 0
KPD2 181146Z 19007KT 16/10 A2976 RMK A01 T01620096  RH  065%=      5-min Rain = 0
KPD2 181147Z 18005KT 16/10 A2976 RMK A01 T01620096  RH  065%=      5-min Rain = 0
KPD2 181148Z 20005KT 16/10 A2976 RMK A01 T01630096  RH  064%=      5-min Rain = 0
KPD2 181149Z 21004KT 16/10 A2976 RMK A01 T01630096  RH  064%=      5-min Rain = 0
KPD2 181150Z 19006G12KT 16/10 A2976 RMK A01 T01630096  RH  064%=      5-min Rain = 0
KPD2 181151Z 18006KT 16/10 A2976 RMK A01 T01630096  RH  064%=      5-min Rain = 0
KPD2 181152Z 20005KT 16/10 A2976 RMK A01 T01630096  RH  064%=      5-min Rain = 0
KPD2 181153Z 20006G11KT 16/10 A2976 RMK A01 T01640097  RH  064%=      5-min Rain = 0
KPD2 181154Z 20012G21KT 16/10 A2977 RMK A01 T01640097  RH  064%=      5-min Rain = 0
KPD2 181155Z 17006G11KT 17/10 A2976 RMK A01 T01650097  RH  064%=      5-min Rain = 0
KPD2 181156Z 17008G14KT 17/10 A2976 RMK A01 T01650097  RH  064%=      5-min Rain = 0
KPD2 181157Z 23009G15KT 17/10 A2976 RMK A01 T01650098  RH  064%=      5-min Rain = 0
KPD2 181158Z 18008KT 17/10 A2976 RMK A01 T01650097  RH  064%=      5-min Rain = 0
KPD2 181159Z 18010G16KT 16/10 A2976 RMK A01 T01640097  RH  065%=      5-min Rain = 0
KPD2 181200Z 22009G17KT 16/10 A2976 RMK A01 T01640097  RH  064%=      5-min Rain = 0
KPD2 181201Z 18007KT 17/10 A2976 RMK A01 T01650097  RH  064%=      5-min Rain = 0
KPD2 181202Z 22007KT 17/10 A2977 RMK A01 T01650097  RH  064%=      5-min Rain = 0
KPD2 181203Z 16008KT 17/10 A2976 RMK A01 T01650098  RH  065%=      5-min Rain = 0
KPD2 181204Z 17010G15KT 17/10 A2977 RMK A01 T01650098  RH  065%=      5-min Rain = 0
KPD2 181205Z 18011KT 17/10 A2976 RMK A01 T01650099  RH  065%=      5-min Rain = 0
KPD2 181206Z 22007KT 17/10 A2977 RMK A01 T01650099  RH  065%=      5-min Rain = 0
KPD2 181207Z 20007G15KT 17/10 A2977 RMK A01 T01650099  RH  065%=      5-min Rain = 0
KPD2 181208Z 20012KT 16/10 A2977 RMK A01 T01640099  RH  065%=      5-min Rain = 0
KPD2 181209Z 17009KT 16/10 A2977 RMK A01 T01640099  RH  065%=      5-min Rain = 0
KPD2 181210Z 19006G13KT 16/10 A2977 RMK A01 T01640099  RH  065%=      5-min Rain = 0
KPD2 181211Z 22004KT 16/10 A2977 RMK A01 T01640099  RH  065%=      5-min Rain = 0
KPD2 181212Z 17008G20KT 16/10 A2977 RMK A01 T01640099  RH  065%=      5-min Rain = 0
KPD2 181213Z 19009G16KT 16/10 A2977 RMK A01 T01640099  RH  065%=      5-min Rain = 0
KPD2 181214Z 18007KT 16/10 A2977 RMK A01 T01640099  RH  065%=      5-min Rain = 0
KPD2 181215Z 20007G12KT 16/10 A2977 RMK A01 T01640099  RH  065%=      5-min Rain = 0
KPD2 181216Z 19005KT 16/10 A2977 RMK A01 T01640099  RH  065%=      5-min Rain = 0
KPD2 181217Z 17008G14KT 17/10 A2977 RMK A01 T01650099  RH  065%=      5-min Rain = 0
KPD2 181218Z 17011G19KT 17/10 A2977 RMK A01 T01650099  RH  065%=      5-min Rain = 0
KPD2 181219Z 18009KT 17/10 A2977 RMK A01 T01650100  RH  065%=      5-min Rain = 0
KPD2 181220Z 19004KT 17/10 A2977 RMK A01 T01650099  RH  065%=      5-min Rain = 0
KPD2 181221Z 19010G23KT 17/10 A2977 RMK A01 T01650099  RH  065%=      5-min Rain = 0
KPD2 181222Z 18007KT 17/10 A2977 RMK A01 T01650099  RH  065%=      5-min Rain = 0
KPD2 181223Z 20010G17KT 17/10 A2977 RMK A01 T01650099  RH  065%=      5-min Rain = 0
KPD2 181224Z 19011KT 17/10 A2977 RMK A01 T01650100  RH  065%=      5-min Rain = 0
KPD2 181225Z 19012G17KT 17/10 A2977 RMK A01 T01650100  RH  065%=      5-min Rain = 0
KPD2 181226Z 17012KT 17/10 A2977 RMK A01 T01650100  RH  065%=      5-min Rain = 0
KPD2 181227Z 18007KT 17/10 A2977 RMK A01 T01650100  RH  065%=      5-min Rain = 0
KPD2 181228Z 17006G11KT 16/10 A2977 RMK A01 T01640100  RH  066%=      5-min Rain = 0
KPD2 181229Z 20005G11KT 16/10 A2977 RMK A01 T01640100  RH  066%=      5-min Rain = 0
KPD2 181230Z 18010KT 16/10 A2977 RMK A01 T01630100  RH  066%=      5-min Rain = 0
KPD2 181231Z 16011KT 16/10 A2977 RMK A01 T01630100  RH  066%=      5-min Rain = 0
KPD2 181232Z 18005G11KT 16/10 A2977 RMK A01 T01630100  RH  066%=      5-min Rain = 0
KPD2 181233Z 19010G17KT 16/10 A2977 RMK A01 T01630100  RH  066%=      5-min Rain = 0
KPD2 181234Z 17007KT 16/10 A2977 RMK A01 T01630100  RH  066%=      5-min Rain = 0
KPD2 181235Z 21007G13KT 16/10 A2977 RMK A01 T01620100  RH  067%=      5-min Rain = 0
KPD2 181236Z 18006KT 16/10 A2977 RMK A01 T01620100  RH  067%=      5-min Rain = 0
KPD2 181237Z 19008G13KT 16/10 A2977 RMK A01 T01620100  RH  067%=      5-min Rain = 0
KPD2 181238Z 19008G14KT 16/10 A2977 RMK A01 T01620100  RH  067%=      5-min Rain = 0
KPD2 181239Z 18006KT 16/10 A2977 RMK A01 T01620100  RH  067%=      5-min Rain = 0
KPD2 181240Z 21009KT 16/10 A2977 RMK A01 T01620101  RH  067%=      5-min Rain = 0
KPD2 181241Z 18006KT 16/10 A2977 RMK A01 T01610100  RH  067%=      5-min Rain = 0
KPD2 181242Z 18010G15KT 16/10 A2977 RMK A01 T01610101  RH  067%=      5-min Rain = 0
KPD2 181243Z 19009KT 16/10 A2977 RMK A01 T01600100  RH  068%=      5-min Rain = 0
KPD2 181244Z 18011G16KT 16/10 A2977 RMK A01 T01610100  RH  067%=      5-min Rain = 0
KPD2 181245Z 19006G11KT 16/10 A2977 RMK A01 T01610100  RH  067%=      5-min Rain = 0
KPD2 181246Z 17007G12KT 16/10 A2977 RMK A01 T01610100  RH  067%=      5-min Rain = 0
KPD2 181247Z 17005G10KT 16/10 A2977 RMK A01 T01600101  RH  068%=      5-min Rain = 0
KPD2 181248Z 18007KT 16/10 A2977 RMK A01 T01600101  RH  068%=      5-min Rain = 0
KPD2 181249Z 17011KT 16/10 A2977 RMK A01 T01590100  RH  068%=      5-min Rain = 0
KPD2 181250Z 18008KT 16/10 A2977 RMK A01 T01590101  RH  068%=      5-min Rain = 0
KPD2 181251Z 19004KT 16/10 A2977 RMK A01 T01590101  RH  068%=      5-min Rain = 0
KPD2 181252Z 17005KT 16/10 A2977 RMK A01 T01590101  RH  068%=      5-min Rain = 0
KPD2 181253Z 18006KT 16/10 A2977 RMK A01 T01580100  RH  069%=      5-min Rain = 0
KPD2 181254Z 17004KT 16/10 A2977 RMK A01 T01570100  RH  069%=      5-min Rain = 0
KPD2 181255Z 17006G11KT 16/10 A2977 RMK A01 T01560100  RH  069%=      5-min Rain = 0
KPD2 181256Z 19009G16KT 16/10 A2977 RMK A01 T01560100  RH  069%=      5-min Rain = 0
KPD2 181257Z 18009KT 16/10 A2977 RMK A01 T01550100  RH  070%=      5-min Rain = 0
KPD2 181258Z 14008KT 16/10 A2977 RMK A01 T01550100  RH  070%=      5-min Rain = 0
KPD2 181259Z 17007KT 16/10 A2977 RMK A01 T01550100  RH  070%=      5-min Rain = 0
KPD2 181300Z 19005G10KT 16/10 A2977 RMK A01 T01550100  RH  070%=      5-min Rain = 0
KPD2 181301Z 18008KT 15/10 A2977 RMK A01 T01540100  RH  070%=      5-min Rain = 0
KPD2 181302Z 18008KT 16/10 A2977 RMK A01 T01550101  RH  070%=      5-min Rain = 0
KPD2 181303Z 18011KT 15/10 A2977 RMK A01 T01540101  RH  070%=      5-min Rain = 0
KPD2 181304Z 19008KT 15/10 A2977 RMK A01 T01540100  RH  070%=      5-min Rain = 0
KPD2 181305Z 17004KT 15/10 A2977 RMK A01 T01540100  RH  070%=      5-min Rain = 0
KPD2 181306Z 25003KT 15/10 A2977 RMK A01 T01540101  RH  070%=      5-min Rain = 0
KPD2 181307Z 16003KT 15/10 A2977 RMK A01 T01540101  RH  070%=      5-min Rain = 0
KPD2 181308Z 19004KT 15/10 A2977 RMK A01 T01540101  RH  070%=      5-min Rain = 0
KPD2 181309Z 16005KT 15/10 A2977 RMK A01 T01540101  RH  070%=      5-min Rain = 0
KPD2 181310Z 16009G14KT 15/10 A2977 RMK A01 T01540101  RH  071%=      5-min Rain = 0
KPD2 181311Z 16008G13KT 15/10 A2977 RMK A01 T01540101  RH  071%=      5-min Rain = 0
KPD2 181312Z 19006KT 15/10 A2977 RMK A01 T01540100  RH  070%=      5-min Rain = 0
KPD2 181313Z 20007G14KT 15/10 A2977 RMK A01 T01540100  RH  070%=      5-min Rain = 0
KPD2 181314Z 15005KT 15/10 A2977 RMK A01 T01540100  RH  071%=      5-min Rain = 0
KPD2 181315Z 19008G15KT 15/10 A2977 RMK A01 T01530100  RH  071%=      5-min Rain = 0
KPD2 181316Z 15009G17KT 15/10 A2977 RMK A01 T01530100  RH  071%=      5-min Rain = 0
KPD2 181317Z 18010KT 15/10 A2977 RMK A01 T01530100  RH  071%=      5-min Rain = 0
KPD2 181318Z 22007G17KT 15/10 A2977 RMK A01 T01530100  RH  071%=      5-min Rain = 0
KPD2 181319Z 17010G15KT 15/10 A2977 RMK A01 T01520100  RH  071%=      5-min Rain = 0
KPD2 181320Z 18004KT 15/10 A2977 RMK A01 T01520100  RH  071%=      5-min Rain = 0
KPD2 181321Z 16005KT 15/10 A2977 RMK A01 T01530101  RH  071%=      5-min Rain = 0
KPD2 181322Z 14005KT 15/10 A2977 RMK A01 T01520101  RH  071%=      5-min Rain = 0
KPD2 181323Z 20003G8KT 15/10 A2977 RMK A01 T01520100  RH  071%=      5-min Rain = 0
KPD2 181324Z 24005KT 15/10 A2977 RMK A01 T01520100  RH  071%=      5-min Rain = 0
KPD2 181325Z 22004KT 15/10 A2977 RMK A01 T01520100  RH  071%=      5-min Rain = 0
KPD2 181326Z 07002G7KT 15/10 A2977 RMK A01 T01520100  RH  071%=      5-min Rain = 0
KPD2 181327Z 11004KT 15/10 A2977 RMK A01 T01510100  RH  072%=      5-min Rain = 0
KPD2 181328Z 18002KT 15/10 A2977 RMK A01 T01510100  RH  072%=      5-min Rain = 0
KPD2 181329Z 16004KT 15/10 A2977 RMK A01 T01510101  RH  072%=      5-min Rain = 0
KPD2 181330Z 22004KT 15/10 A2977 RMK A01 T01510100  RH  072%=      5-min Rain = 0
KPD2 181331Z 14001KT 15/10 A2977 RMK A01 T01510100  RH  071%=      5-min Rain = 0
KPD2 181332Z 16002KT 15/10 A2977 RMK A01 T01510100  RH  071%=      5-min Rain = 0
KPD2 181333Z 12003KT 15/10 A2977 RMK A01 T01510100  RH  071%=      5-min Rain = 0
KPD2 181334Z 16004KT 15/10 A2977 RMK A01 T01510100  RH  072%=      5-min Rain = 0
KPD2 181335Z 16004KT 15/10 A2977 RMK A01 T01510101  RH  072%=      5-min Rain = 0
KPD2 181336Z 20004KT 15/10 A2977 RMK A01 T01510100  RH  072%=      5-min Rain = 0
KPD2 181337Z 16002KT 15/10 A2977 RMK A01 T01510100  RH  071%=      5-min Rain = 0
KPD2 181338Z 13003KT 15/10 A2977 RMK A01 T01510100  RH  071%=      5-min Rain = 0
KPD2 181339Z 19002KT 15/10 A2977 RMK A01 T01510100  RH  071%=      5-min Rain = 0
KPD2 181340Z 20005KT 15/10 A2977 RMK A01 T01520101  RH  071%=      5-min Rain = 0
KPD2 181341Z 19003KT 15/10 A2977 RMK A01 T01520100  RH  071%=      5-min Rain = 0
KPD2 181342Z 21004KT 15/10 A2977 RMK A01 T01520100  RH  071%=      5-min Rain = 0
KPD2 181343Z 33003KT 15/10 A2977 RMK A01 T01520100  RH  071%=      5-min Rain = 0
KPD2 181344Z 28001KT 15/10 A2977 RMK A01 T01520099  RH  071%=      5-min Rain = 0
KPD2 181345Z 18002KT 15/10 A2977 RMK A01 T01520100  RH  071%=      5-min Rain = 0
KPD2 181346Z 18002KT 15/10 A2977 RMK A01 T01530100  RH  071%=      5-min Rain = 0
KPD2 181347Z 18001KT 15/10 A2977 RMK A01 T01530100  RH  071%=      5-min Rain = 0
KPD2 181348Z 17004KT 15/10 A2977 RMK A01 T01530101  RH  071%=      5-min Rain = 0
KPD2 181349Z 19005KT 15/10 A2977 RMK A01 T01530100  RH  071%=      5-min Rain = 0
KPD2 181350Z 20001KT 15/10 A2977 RMK A01 T01530100  RH  071%=      5-min Rain = 0
KPD2 181351Z 20002KT 15/10 A2977 RMK A01 T01530100  RH  071%=      5-min Rain = 0
KPD2 181352Z 29002KT 15/10 A2977 RMK A01 T01530100  RH  071%=      5-min Rain = 0
KPD2 181353Z 31004KT 15/10 A2977 RMK A01 T01530101  RH  071%=      5-min Rain = 0
KPD2 181354Z 33003KT 15/10 A2977 RMK A01 T01530101  RH  071%=      5-min Rain = 0
KPD2 181355Z 34001KT 15/10 A2977 RMK A01 T01540101  RH  071%=      5-min Rain = 0
KPD2 181356Z 05002KT 15/10 A2977 RMK A01 T01530100  RH  071%=      5-min Rain = 0
KPD2 181357Z 10002KT 15/10 A2977 RMK A01 T01530101  RH  071%=      5-min Rain = 0
KPD2 181358Z 10003KT 15/10 A2977 RMK A01 T01540101  RH  071%=      5-min Rain = 0
KPD2 181359Z 03001KT 15/10 A2977 RMK A01 T01540101  RH  071%=      5-min Rain = 0
KPD2 181400Z 34002KT 15/10 A2977 RMK A01 T01540101  RH  070%=      5-min Rain = 0
KPD2 181401Z 09004KT 15/10 A2977 RMK A01 T01540101  RH  071%=      5-min Rain = 0
KPD2 181402Z 08004KT 16/10 A2977 RMK A01 T01550101  RH  070%=      5-min Rain = 0
KPD2 181403Z 12004KT 16/10 A2977 RMK A01 T01560101  RH  070%=      5-min Rain = 0
KPD2 181404Z 14005KT 16/10 A2977 RMK A01 T01570101  RH  069%=      5-min Rain = 0
KPD2 181405Z 15003KT 16/10 A2977 RMK A01 T01570100  RH  069%=      5-min Rain = 0
KPD2 181406Z 30001KT 16/10 A2977 RMK A01 T01570100  RH  069%=      5-min Rain = 0
KPD2 181407Z 32003KT 16/10 A2977 RMK A01 T01570101  RH  069%=      5-min Rain = 0
KPD2 181408Z 29004KT 16/10 A2977 RMK A01 T01570100  RH  069%=      5-min Rain = 0
KPD2 181409Z 33001KT 16/10 A2977 RMK A01 T01560100  RH  069%=      5-min Rain = 0
KPD2 181410Z 13001KT 16/10 A2977 RMK A01 T01570101  RH  069%=      5-min Rain = 0
KPD2 181411Z 04002KT 16/10 A2977 RMK A01 T01560101  RH  069%=      5-min Rain = 0
KPD2 181412Z 34002KT 16/10 A2977 RMK A01 T01570101  RH  069%=      5-min Rain = 0
KPD2 181413Z 32003KT 16/10 A2977 RMK A01 T01570102  RH  070%=      5-min Rain = 0
KPD2 181414Z 31003KT 16/10 A2977 RMK A01 T01570101  RH  069%=      5-min Rain = 0
KPD2 181415Z 31000KT 16/10 A2977 RMK A01 T01580102  RH  069%=      5-min Rain = 0
KPD2 181416Z 24002KT 16/10 A2978 RMK A01 T01580102  RH  069%=      5-min Rain = 0
KPD2 181417Z 24002KT 16/10 A2977 RMK A01 T01590102  RH  069%=      5-min Rain = 0
KPD2 181418Z 16000KT 16/10 A2977 RMK A01 T01590101  RH  068%=      5-min Rain = 0
KPD2 181419Z 09001KT 16/10 A2978 RMK A01 T01590101  RH  068%=      5-min Rain = 0
KPD2 181420Z 34001KT 16/10 A2978 RMK A01 T01590102  RH  069%=      5-min Rain = 0
KPD2 181421Z 02002KT 16/10 A2978 RMK A01 T01600102  RH  068%=      5-min Rain = 0
KPD2 181422Z 02003KT 16/10 A2978 RMK A01 T01610103  RH  069%=      5-min Rain = 0
KPD2 181423Z 02003KT 16/10 A2978 RMK A01 T01610104  RH  069%=      5-min Rain = 0
KPD2 181424Z 05003KT 16/10 A2978 RMK A01 T01620103  RH  068%=      5-min Rain = 0
KPD2 181425Z 04003KT 16/10 A2978 RMK A01 T01630103  RH  068%=      5-min Rain = 0
KPD2 181426Z 06002KT 16/10 A2977 RMK A01 T01640102  RH  067%=      5-min Rain = 0
KPD2 181427Z 07003KT 17/10 A2977 RMK A01 T01650103  RH  067%=      5-min Rain = 0
KPD2 181428Z 07002KT 17/10 A2977 RMK A01 T01650102  RH  066%=      5-min Rain = 0
KPD2 181429Z 06002KT 17/10 A2977 RMK A01 T01650102  RH  066%=      5-min Rain = 0
KPD2 181430Z 03003KT 17/10 A2977 RMK A01 T01650102  RH  066%=      5-min Rain = 0
KPD2 181431Z 00003KT 17/10 A2977 RMK A01 T01660103  RH  066%=      5-min Rain = 0
KPD2 181432Z 00002KT 17/10 A2977 RMK A01 T01660103  RH  066%=      5-min Rain = 0
KPD2 181433Z 23003KT 17/10 A2977 RMK A01 T01670103  RH  066%=      5-min Rain = 0
KPD2 181434Z 18003KT 17/10 A2977 RMK A01 T01680103  RH  066%=      5-min Rain = 0
KPD2 181435Z 20004KT 17/10 A2977 RMK A01 T01690102  RH  065%=      5-min Rain = 0
KPD2 181436Z 20005KT 17/10 A2977 RMK A01 T01690101  RH  065%=      5-min Rain = 0
KPD2 181437Z 22003KT 17/10 A2977 RMK A01 T01690102  RH  064%=      5-min Rain = 0
KPD2 181438Z 22002KT 17/10 A2977 RMK A01 T01690101  RH  064%=      5-min Rain = 0
KPD2 181439Z 20005KT 17/10 A2977 RMK A01 T01690103  RH  065%=      5-min Rain = 0
KPD2 181440Z 18006KT 17/10 A2977 RMK A01 T01700103  RH  064%=      5-min Rain = 0
KPD2 181441Z 23003KT 17/10 A2977 RMK A01 T01710102  RH  064%=      5-min Rain = 0
KPD2 181442Z 14000KT 17/10 A2977 RMK A01 T01710104  RH  065%=      5-min Rain = 0
KPD2 181443Z 12001KT 17/10 A2977 RMK A01 T01730104  RH  064%=      5-min Rain = 0
KPD2 181444Z 08001KT 17/10 A2977 RMK A01 T01740104  RH  063%=      5-min Rain = 0
KPD2 181445Z 13003KT 18/10 A2977 RMK A01 T01760104  RH  063%=      5-min Rain = 0
KPD2 181446Z 16005KT 18/10 A2977 RMK A01 T01770104  RH  062%=      5-min Rain = 0
KPD2 181447Z 18004KT 18/10 A2977 RMK A01 T01780104  RH  062%=      5-min Rain = 0
KPD2 181448Z 21002KT 18/10 A2977 RMK A01 T01780104  RH  062%=      5-min Rain = 0
KPD2 181449Z 24002KT 18/11 A2977 RMK A01 T01790105  RH  062%=      5-min Rain = 0
KPD2 181450Z 15003G8KT 18/10 A2977 RMK A01 T01780104  RH  062%=      5-min Rain = 0
KPD2 181451Z 16003KT 18/10 A2977 RMK A01 T01780103  RH  061%=      5-min Rain = 0
KPD2 181452Z 13002KT 18/10 A2977 RMK A01 T01770102  RH  061%=      5-min Rain = 0
KPD2 181453Z 18003KT 18/10 A2977 RMK A01 T01770103  RH  062%=      5-min Rain = 0
KPD2 181454Z 17003KT 18/10 A2977 RMK A01 T01760103  RH  062%=      5-min Rain = 0
KPD2 181455Z 15002KT 18/10 A2977 RMK A01 T01760103  RH  062%=      5-min Rain = 0
KPD2 181456Z 13003KT 18/10 A2977 RMK A01 T01770104  RH  062%=      5-min Rain = 0
KPD2 181457Z 12004KT 18/10 A2977 RMK A01 T01780104  RH  062%=      5-min Rain = 0
KPD2 181458Z 21002KT 18/10 A2977 RMK A01 T01780104  RH  062%=      5-min Rain = 0
KPD2 181459Z 15006KT 18/11 A2977 RMK A01 T01790105  RH  062%=      5-min Rain = 0
KPD2 181500Z 19005KT 18/10 A2977 RMK A01 T01800104  RH  061%=      5-min Rain = 0
KPD2 181501Z 23006KT 18/11 A2977 RMK A01 T01800105  RH  061%=      5-min Rain = 0
KPD2 181502Z 22006G11KT 18/11 A2977 RMK A01 T01800106  RH  062%=      5-min Rain = 0
KPD2 181503Z 21004G13KT 18/11 A2977 RMK A01 T01800105  RH  061%=      5-min Rain = 0
KPD2 181504Z 24003KT 18/11 A2977 RMK A01 T01800105  RH  061%=      5-min Rain = 0
KPD2 181505Z 17004KT 18/11 A2977 RMK A01 T01810106  RH  062%=      5-min Rain = 0
KPD2 181506Z 13005KT 18/11 A2977 RMK A01 T01820105  RH  061%=      5-min Rain = 0
KPD2 181507Z 12004KT 18/11 A2977 RMK A01 T01830106  RH  061%=      5-min Rain = 0
KPD2 181508Z 12005KT 18/11 A2977 RMK A01 T01840107  RH  061%=      5-min Rain = 0
KPD2 181509Z 16004KT 19/11 A2977 RMK A01 T01860107  RH  060%=      5-min Rain = 0
KPD2 181510Z 21004KT 19/11 A2977 RMK A01 T01870107  RH  060%=      5-min Rain = 0
KPD2 181511Z 22003KT 19/11 A2977 RMK A01 T01870106  RH  059%=      5-min Rain = 0
KPD2 181512Z 17002KT 19/11 A2977 RMK A01 T01860106  RH  060%=      5-min Rain = 0
KPD2 181513Z 16001KT 19/11 A2976 RMK A01 T01860106  RH  060%=      5-min Rain = 0
KPD2 181514Z 19000KT 19/11 A2977 RMK A01 T01870106  RH  059%=      5-min Rain = 0
KPD2 181515Z 35000KT 19/11 A2976 RMK A01 T01880106  RH  059%=      5-min Rain = 0
KPD2 181516Z 13001KT 19/11 A2976 RMK A01 T01890107  RH  059%=      5-min Rain = 0
KPD2 181517Z 11003KT 19/11 A2976 RMK A01 T01900108  RH  059%=      5-min Rain = 0
KPD2 181518Z 12003KT 19/11 A2976 RMK A01 T01910109  RH  059%=      5-min Rain = 0
KPD2 181519Z 11004KT 19/11 A2976 RMK A01 T01930109  RH  058%=      5-min Rain = 0
KPD2 181520Z 13005KT 20/11 A2976 RMK A01 T01950110  RH  058%=      5-min Rain = 0
KPD2 181521Z 19005KT 20/11 A2976 RMK A01 T01960109  RH  057%=      5-min Rain = 0
KPD2 181522Z 19003KT 20/11 A2976 RMK A01 T01950108  RH  057%=      5-min Rain = 0
KPD2 181523Z 19005KT 19/11 A2977 RMK A01 T01930107  RH  057%=      5-min Rain = 0
KPD2 181524Z 16003KT 19/11 A2976 RMK A01 T01910108  RH  058%=      5-min Rain = 0
KPD2 181525Z 12003KT 19/11 A2976 RMK A01 T01910108  RH  058%=      5-min Rain = 0
KPD2 181526Z 16002KT 19/11 A2976 RMK A01 T01920108  RH  058%=      5-min Rain = 0
KPD2 181527Z 16004KT 19/11 A2976 RMK A01 T01920107  RH  058%=      5-min Rain = 0
KPD2 181528Z 15003KT 19/11 A2976 RMK A01 T01920108  RH  058%=      5-min Rain = 0
KPD2 181529Z 14006KT 19/11 A2976 RMK A01 T01920108  RH  058%=      5-min Rain = 0
KPD2 181530Z 15005KT 19/11 A2976 RMK A01 T01930110  RH  058%=      5-min Rain = 0
KPD2 181531Z 16006KT 19/11 A2976 RMK A01 T01940108  RH  057%=      5-min Rain = 0
KPD2 181532Z 22005KT 19/11 A2976 RMK A01 T01940109  RH  058%=      5-min Rain = 0
KPD2 181533Z 25003KT 20/11 A2976 RMK A01 T01950110  RH  058%=      5-min Rain = 0
KPD2 181534Z 15006KT 20/11 A2976 RMK A01 T01960111  RH  058%=      5-min Rain = 0
KPD2 181535Z 13006KT 20/11 A2976 RMK A01 T01970110  RH  057%=      5-min Rain = 0
KPD2 181536Z 12004KT 20/11 A2976 RMK A01 T01980110  RH  057%=      5-min Rain = 0
KPD2 181537Z 08001KT 20/11 A2976 RMK A01 T01990110  RH  057%=      5-min Rain = 0
KPD2 181538Z 15003KT 20/11 A2976 RMK A01 T02000111  RH  056%=      5-min Rain = 0
KPD2 181539Z 15005KT 20/11 A2976 RMK A01 T02010110  RH  056%=      5-min Rain = 0
KPD2 181540Z 14005KT 20/11 A2976 RMK A01 T02010112  RH  056%=      5-min Rain = 0
KPD2 181541Z 14005KT 20/11 A2976 RMK A01 T02020111  RH  056%=      5-min Rain = 0
KPD2 181542Z 12005KT 20/11 A2976 RMK A01 T02020112  RH  056%=      5-min Rain = 0
KPD2 181543Z 13007KT 20/11 A2976 RMK A01 T02020112  RH  056%=      5-min Rain = 0
KPD2 181544Z 12005KT 20/11 A2976 RMK A01 T02030112  RH  056%=      5-min Rain = 0
KPD2 181545Z 09004KT 20/11 A2976 RMK A01 T02030111  RH  056%=      5-min Rain = 0
KPD2 181546Z 13003KT 20/11 A2976 RMK A01 T02030111  RH  055%=      5-min Rain = 0
KPD2 181547Z 11005KT 20/11 A2976 RMK A01 T02040113  RH  056%=      5-min Rain = 0
KPD2 181548Z 10004KT 21/11 A2976 RMK A01 T02050112  RH  055%=      5-min Rain = 0
KPD2 181549Z 09003KT 21/11 A2975 RMK A01 T02060112  RH  055%=      5-min Rain = 0
KPD2 181550Z 09002KT 21/11 A2975 RMK A01 T02060112  RH  055%=      5-min Rain = 0
KPD2 181551Z 13002KT 21/11 A2975 RMK A01 T02070114  RH  055%=      5-min Rain = 0
KPD2 181552Z 17002KT 21/11 A2975 RMK A01 T02080112  RH  054%=      5-min Rain = 0
KPD2 181553Z 15003KT 21/11 A2975 RMK A01 T02080112  RH  054%=      5-min Rain = 0
KPD2 181554Z 10003KT 21/11 A2975 RMK A01 T02090113  RH  054%=      5-min Rain = 0
KPD2 181555Z 08005KT 21/12 A2975 RMK A01 T02100115  RH  054%=      5-min Rain = 0
KPD2 181556Z 09004KT 21/11 A2975 RMK A01 T02110113  RH  054%=      5-min Rain = 0
KPD2 181557Z 11005KT 21/12 A2975 RMK A01 T02120115  RH  054%=      5-min Rain = 0
KPD2 181558Z 13003KT 21/11 A2975 RMK A01 T02120114  RH  053%=      5-min Rain = 0
KPD2 181559Z 15003KT 21/11 A2975 RMK A01 T02130111  RH  052%=      5-min Rain = 0
KPD2 181600Z 15004KT 21/11 A2975 RMK A01 T02130112  RH  052%=      5-min Rain = 0
KPD2 181601Z 12002KT 21/11 A2975 RMK A01 T02130113  RH  053%=      5-min Rain = 0
KPD2 181602Z 11002KT 21/11 A2975 RMK A01 T02120114  RH  053%=      5-min Rain = 0
KPD2 181603Z 14002KT 21/11 A2975 RMK A01 T02130114  RH  053%=      5-min Rain = 0
KPD2 181604Z 14002KT 21/11 A2975 RMK A01 T02140114  RH  053%=      5-min Rain = 0
KPD2 181605Z 08002KT 21/12 A2975 RMK A01 T02140115  RH  053%=      5-min Rain = 0
KPD2 181606Z 08002KT 22/12 A2975 RMK A01 T02160116  RH  053%=      5-min Rain = 0
KPD2 181607Z 06003KT 22/12 A2974 RMK A01 T02170115  RH  052%=      5-min Rain = 0
KPD2 181608Z 16003KT 22/12 A2974 RMK A01 T02170116  RH  052%=      5-min Rain = 0
KPD2 181609Z 18001KT 22/12 A2974 RMK A01 T02180115  RH  052%=      5-min Rain = 0
KPD2 181610Z 12002KT 22/12 A2974 RMK A01 T02180116  RH  052%=      5-min Rain = 0
KPD2 181611Z 14002KT 22/12 A2974 RMK A01 T02200117  RH  052%=      5-min Rain = 0
KPD2 181612Z 21003G8KT 22/12 A2974 RMK A01 T02210116  RH  052%=      5-min Rain = 0
KPD2 181613Z 21006KT 22/12 A2974 RMK A01 T02210116  RH  051%=      5-min Rain = 0
KPD2 181614Z 22003KT 22/12 A2974 RMK A01 T02210116  RH  051%=      5-min Rain = 0
KPD2 181615Z 19003KT 22/11 A2974 RMK A01 T02200114  RH  051%=      5-min Rain = 0
KPD2 181616Z 19002KT 22/11 A2974 RMK A01 T02180114  RH  052%=      5-min Rain = 0
KPD2 181617Z 12000KT 22/11 A2974 RMK A01 T02170113  RH  051%=      5-min Rain = 0
KPD2 181618Z 09002KT 22/11 A2974 RMK A01 T02160114  RH  052%=      5-min Rain = 0
KPD2 181619Z 15002KT 22/11 A2974 RMK A01 T02170114  RH  052%=      5-min Rain = 0
KPD2 181620Z 17004KT 22/12 A2974 RMK A01 T02180115  RH  052%=      5-min Rain = 0
KPD2 181621Z 19005KT 22/12 A2974 RMK A01 T02180116  RH  052%=      5-min Rain = 0
KPD2 181622Z 20003KT 22/12 A2974 RMK A01 T02180115  RH  052%=      5-min Rain = 0
KPD2 181623Z 20001KT 22/12 A2974 RMK A01 T02170115  RH  052%=      5-min Rain = 0
KPD2 181624Z 23002KT 22/12 A2974 RMK A01 T02170115  RH  052%=      5-min Rain = 0
KPD2 181625Z 19002KT 22/12 A2973 RMK A01 T02180116  RH  052%=      5-min Rain = 0
KPD2 181626Z 20006KT 22/12 A2973 RMK A01 T02180115  RH  052%=      5-min Rain = 0
KPD2 181627Z 22004KT 22/12 A2973 RMK A01 T02170116  RH  052%=      5-min Rain = 0
KPD2 181628Z 26003KT 22/11 A2973 RMK A01 T02170114  RH  052%=      5-min Rain = 0
KPD2 181629Z 20002KT 22/12 A2973 RMK A01 T02180116  RH  052%=      5-min Rain = 0
KPD2 181630Z 14004KT 22/12 A2973 RMK A01 T02200118  RH  052%=      5-min Rain = 0
KPD2 181631Z 12006KT 22/12 A2973 RMK A01 T02220117  RH  051%=      5-min Rain = 0
KPD2 181632Z 11005KT 22/12 A2973 RMK A01 T02240117  RH  051%=      5-min Rain = 0
KPD2 181633Z 14004KT 22/12 A2973 RMK A01 T02240115  RH  050%=      5-min Rain = 0
KPD2 181634Z 16003KT 22/12 A2972 RMK A01 T02240117  RH  051%=      5-min Rain = 0
KPD2 181635Z 14003KT 23/12 A2972 RMK A01 T02250119  RH  051%=      5-min Rain = 0
KPD2 181636Z 13005KT 23/12 A2972 RMK A01 T02270118  RH  050%=      5-min Rain = 0
KPD2 181637Z 12005KT 23/12 A2972 RMK A01 T02290119  RH  050%=      5-min Rain = 0
KPD2 181638Z 13004KT 23/12 A2972 RMK A01 T02300118  RH  049%=      5-min Rain = 0
KPD2 181639Z 16004KT 23/12 A2972 RMK A01 T02320117  RH  048%=      5-min Rain = 0
KPD2 181640Z 13007KT 23/12 A2972 RMK A01 T02310118  RH  049%=      5-min Rain = 0
KPD2 181641Z 13006KT 23/12 A2972 RMK A01 T02300119  RH  049%=      5-min Rain = 0
KPD2 181642Z 14006KT 23/12 A2972 RMK A01 T02320120  RH  049%=      5-min Rain = 0
KPD2 181643Z 16005KT 23/12 A2972 RMK A01 T02330120  RH  049%=      5-min Rain = 0
KPD2 181644Z 15005G10KT 23/12 A2972 RMK A01 T02340120  RH  049%=      5-min Rain = 0
KPD2 181645Z 20006KT 24/12 A2972 RMK A01 T02350120  RH  049%=      5-min Rain = 0
KPD2 181646Z 19007KT 24/12 A2972 RMK A01 T02360119  RH  048%=      5-min Rain = 0
KPD2 181647Z 21008KT 23/12 A2972 RMK A01 T02330117  RH  048%=      5-min Rain = 0
KPD2 181648Z 23006KT 23/12 A2972 RMK A01 T02310117  RH  049%=      5-min Rain = 0
KPD2 181649Z 20002KT 23/12 A2972 RMK A01 T02310116  RH  048%=      5-min Rain = 0
KPD2 181650Z 25006G12KT 23/12 A2972 RMK A01 T02330118  RH  049%=      5-min Rain = 0
KPD2 181651Z 27005KT 23/12 A2972 RMK A01 T02340116  RH  048%=      5-min Rain = 0
KPD2 181652Z 28004KT 23/12 A2972 RMK A01 T02320115  RH  048%=      5-min Rain = 0
KPD2 181653Z 28005KT 23/12 A2972 RMK A01 T02300117  RH  049%=      5-min Rain = 0
KPD2 181654Z 26004KT 23/12 A2972 RMK A01 T02310120  RH  050%=      5-min Rain = 0
KPD2 181655Z 23008KT 24/12 A2972 RMK A01 T02360121  RH  048%=      5-min Rain = 0
KPD2 181656Z 24004G9KT 24/12 A2972 RMK A01 T02380122  RH  048%=      5-min Rain = 0
KPD2 181657Z 27007KT 24/12 A2972 RMK A01 T02400121  RH  047%=      5-min Rain = 0
KPD2 181658Z 24004KT 24/12 A2972 RMK A01 T02410122  RH  047%=      5-min Rain = 0
KPD2 181659Z 21006KT 24/12 A2972 RMK A01 T02430123  RH  047%=      5-min Rain = 0
KPD2 181700Z 20006KT 25/12 A2972 RMK A01 T02450123  RH  046%=      5-min Rain = 0
KPD2 181701Z 19004KT 25/12 A2972 RMK A01 T02450122  RH  046%=      5-min Rain = 0
KPD2 181702Z 19007KT 24/12 A2972 RMK A01 T02430121  RH  047%=      5-min Rain = 0
KPD2 181703Z 26004KT 24/12 A2972 RMK A01 T02390120  RH  047%=      5-min Rain = 0
KPD2 181704Z 23004KT 24/12 A2972 RMK A01 T02370121  RH  048%=      5-min Rain = 0
KPD2 181705Z 22004KT 24/12 A2972 RMK A01 T02370123  RH  049%=      5-min Rain = 0
KPD2 181706Z 24002KT 24/12 A2972 RMK A01 T02390124  RH  049%=      5-min Rain = 0
KPD2 181707Z 24003KT 24/13 A2972 RMK A01 T02410125  RH  048%=      5-min Rain = 0
KPD2 181708Z 19004KT 24/12 A2972 RMK A01 T02430123  RH  047%=      5-min Rain = 0
KPD2 181709Z 20007G12KT 24/12 A2972 RMK A01 T02430124  RH  047%=      5-min Rain = 0
KPD2 181710Z 21006G13KT 24/12 A2972 RMK A01 T02420121  RH  047%=      5-min Rain = 0
KPD2 181711Z 23001KT 24/12 A2972 RMK A01 T02400120  RH  047%=      5-min Rain = 0
KPD2 181712Z 18002KT 24/12 A2972 RMK A01 T02390119  RH  047%=      5-min Rain = 0
KPD2 181713Z 23006KT 24/12 A2972 RMK A01 T02390120  RH  047%=      5-min Rain = 0
KPD2 181714Z 25006KT 24/12 A2972 RMK A01 T02380118  RH  047%=      5-min Rain = 0
KPD2 181715Z 26005G10KT 24/12 A2972 RMK A01 T02380119  RH  047%=      5-min Rain = 0
KPD2 181716Z 26006KT 24/12 A2972 RMK A01 T02390120  RH  047%=      5-min Rain = 0
KPD2 181717Z 25005KT 24/12 A2972 RMK A01 T02400120  RH  047%=      5-min Rain = 0
KPD2 181718Z 24007KT 24/12 A2972 RMK A01 T02400119  RH  046%=      5-min Rain = 0
KPD2 181719Z 23006G13KT 24/12 A2971 RMK A01 T02380117  RH  046%=      5-min Rain = 0
KPD2 181720Z 26007G13KT 24/12 A2971 RMK A01 T02380119  RH  047%=      5-min Rain = 0
KPD2 181721Z 24005KT 24/12 A2971 RMK A01 T02380120  RH  048%=      5-min Rain = 0
KPD2 181722Z 26008KT 24/12 A2971 RMK A01 T02380121  RH  048%=      5-min Rain = 0
KPD2 181723Z 22005KT 24/12 A2971 RMK A01 T02370119  RH  048%=      5-min Rain = 0
KPD2 181724Z 19004KT 24/12 A2971 RMK A01 T02360119  RH  048%=      5-min Rain = 0
KPD2 181725Z 27003KT 24/12 A2971 RMK A01 T02370122  RH  048%=      5-min Rain = 0
KPD2 181726Z 26006KT 24/12 A2971 RMK A01 T02400124  RH  048%=      5-min Rain = 0
KPD2 181727Z 23005KT 24/12 A2971 RMK A01 T02420123  RH  047%=      5-min Rain = 0
KPD2 181728Z 25006KT 24/12 A2971 RMK A01 T02440123  RH  047%=      5-min Rain = 0
KPD2 181729Z 26008KT 25/12 A2971 RMK A01 T02450123  RH  047%=      5-min Rain = 0
KPD2 181730Z 25007KT 24/12 A2971 RMK A01 T02420121  RH  047%=      5-min Rain = 0
KPD2 181731Z 27005KT 24/12 A2971 RMK A01 T02400122  RH  047%=      5-min Rain = 0
KPD2 181732Z 25008G13KT 24/12 A2971 RMK A01 T02390123  RH  048%=      5-min Rain = 0
KPD2 181733Z 25006KT 24/12 A2971 RMK A01 T02380122  RH  048%=      5-min Rain = 0
KPD2 181734Z 23005KT 24/12 A2971 RMK A01 T02370121  RH  048%=      5-min Rain = 0
KPD2 181735Z 25002KT 24/12 A2971 RMK A01 T02360120  RH  048%=      5-min Rain = 0
KPD2 181736Z 25005KT 24/12 A2971 RMK A01 T02360121  RH  049%=      5-min Rain = 0
KPD2 181737Z 25005KT 24/12 A2971 RMK A01 T02360121  RH  048%=      5-min Rain = 0
KPD2 181738Z 24002KT 24/12 A2971 RMK A01 T02350119  RH  048%=      5-min Rain = 0
KPD2 181739Z 21002KT 23/12 A2971 RMK A01 T02340119  RH  048%=      5-min Rain = 0
KPD2 181740Z 22003KT 23/12 A2971 RMK A01 T02340120  RH  049%=      5-min Rain = 0
KPD2 181741Z 21003KT 23/12 A2971 RMK A01 T02330119  RH  049%=      5-min Rain = 0
KPD2 181742Z 18004G12KT 23/12 A2971 RMK A01 T02330121  RH  049%=      5-min Rain = 0
KPD2 181743Z 19006KT 23/12 A2971 RMK A01 T02320121  RH  050%=      5-min Rain = 0
KPD2 181744Z 17006KT 23/12 A2971 RMK A01 T02310120  RH  049%=      5-min Rain = 0
KPD2 181745Z 20008KT 23/12 A2971 RMK A01 T02300120  RH  050%=      5-min Rain = 0
KPD2 181746Z 19007KT 23/12 A2971 RMK A01 T02300119  RH  050%=      5-min Rain = 0
KPD2 181747Z 19007KT 23/12 A2971 RMK A01 T02280120  RH  050%=      5-min Rain = 0
KPD2 181748Z 19005KT 23/12 A2971 RMK A01 T02280119  RH  050%=      5-min Rain = 0
KPD2 181749Z 19003KT 23/12 A2971 RMK A01 T02270120  RH  051%=      5-min Rain = 0
KPD2 181750Z 18004KT 23/12 A2971 RMK A01 T02270121  RH  051%=      5-min Rain = 0
KPD2 181751Z 24003KT 23/12 A2971 RMK A01 T02270121  RH  051%=      5-min Rain = 0
KPD2 181752Z 20003KT 23/12 A2971 RMK A01 T02280122  RH  051%=      5-min Rain = 0
KPD2 181753Z 17004KT 23/12 A2971 RMK A01 T02280121  RH  051%=      5-min Rain = 0
KPD2 181754Z 18005KT 23/12 A2971 RMK A01 T02280120  RH  050%=      5-min Rain = 0
KPD2 181755Z 17005KT 23/12 A297 RMK A01 T02270119  RH  050%=      5-min Rain = 0
KPD2 181756Z 17006KT 23/12 A297 RMK A01 T02260120  RH  051%=      5-min Rain = 0
KPD2 181757Z 21006KT 23/12 A2971 RMK A01 T02260119  RH  051%=      5-min Rain = 0
KPD2 181758Z 21003KT 23/12 A297 RMK A01 T02260118  RH  050%=      5-min Rain = 0
KPD2 181759Z 20003KT 23/12 A297 RMK A01 T02250118  RH  051%=      5-min Rain = 0
KPD2 181800Z 15002KT 23/12 A297 RMK A01 T02250118  RH  051%=      5-min Rain = 0
KPD2 181801Z 15004KT 23/12 A297 RMK A01 T02250121  RH  052%=      5-min Rain = 0
KPD2 181802Z 15002KT 23/12 A297 RMK A01 T02260119  RH  051%=      5-min Rain = 0
KPD2 181803Z 12002KT 23/12 A297 RMK A01 T02260119  RH  051%=      5-min Rain = 0
KPD2 181804Z 13001KT 23/12 A297 RMK A01 T02270119  RH  051%=      5-min Rain = 0
KPD2 181805Z 10001KT 23/12 A297 RMK A01 T02270120  RH  051%=      5-min Rain = 0
KPD2 181806Z 02002KT 23/12 A297 RMK A01 T02280120  RH  051%=      5-min Rain = 0
KPD2 181807Z 08002KT 23/12 A297 RMK A01 T02280119  RH  050%=      5-min Rain = 0
KPD2 181808Z 06003KT 23/12 A297 RMK A01 T02280120  RH  050%=      5-min Rain = 0
KPD2 181809Z 05003KT 23/12 A297 RMK A01 T02280121  RH  051%=      5-min Rain = 0
KPD2 181810Z 01000KT 23/12 A297 RMK A01 T02290118  RH  050%=      5-min Rain = 0
KPD2 181811Z 23003KT 23/12 A297 RMK A01 T02290117  RH  049%=      5-min Rain = 0
KPD2 181812Z 27004KT 23/12 A297 RMK A01 T02280118  RH  050%=      5-min Rain = 0
KPD2 181813Z 28006KT 23/12 A297 RMK A01 T02280119  RH  050%=      5-min Rain = 0
KPD2 181814Z 24002KT 23/12 A297 RMK A01 T02290120  RH  050%=      5-min Rain = 0
KPD2 181815Z 22003KT 23/12 A297 RMK A01 T02300119  RH  050%=      5-min Rain = 0
KPD2 181816Z 19003KT 23/12 A297 RMK A01 T02300119  RH  050%=      5-min Rain = 0
KPD2 181817Z 17003KT 23/12 A2969 RMK A01 T02310118  RH  049%=      5-min Rain = 0
KPD2 181818Z 19005KT 23/12 A2969 RMK A01 T02310118  RH  049%=      5-min Rain = 0
KPD2 181819Z 13002KT 23/12 A2969 RMK A01 T02310120  RH  050%=      5-min Rain = 0
KPD2 181820Z 12002KT 23/12 A2969 RMK A01 T02310120  RH  050%=      5-min Rain = 0
KPD2 181821Z 12001KT 23/12 A2969 RMK A01 T02320121  RH  050%=      5-min Rain = 0
KPD2 181822Z 23001KT 23/12 A2969 RMK A01 T02320121  RH  049%=      5-min Rain = 0
KPD2 181823Z 14002KT 23/12 A2969 RMK A01 T02330121  RH  049%=      5-min Rain = 0
KPD2 181824Z 15003KT 23/12 A2969 RMK A01 T02330120  RH  049%=      5-min Rain = 0
KPD2 181825Z 15004KT 23/12 A2969 RMK A01 T02340121  RH  049%=      5-min Rain = 0
KPD2 181826Z 18006KT 24/12 A2969 RMK A01 T02360121  RH  049%=      5-min Rain = 0
KPD2 181827Z 20006KT 24/12 A2969 RMK A01 T02370120  RH  048%=      5-min Rain = 0
KPD2 181828Z 18003KT 24/12 A2969 RMK A01 T02390120  RH  047%=      5-min Rain = 0
KPD2 181829Z 19003KT 24/12 A2969 RMK A01 T02390121  RH  048%=      5-min Rain = 0
KPD2 181830Z 19003KT 24/12 A2969 RMK A01 T02400122  RH  048%=      5-min Rain = 0
KPD2 181831Z 14001KT 24/12 A2969 RMK A01 T02400122  RH  047%=      5-min Rain = 0
KPD2 181832Z 13004KT 24/12 A2969 RMK A01 T02410123  RH  048%=      5-min Rain = 0
KPD2 181833Z 13005KT 24/12 A2968 RMK A01 T02420124  RH  048%=      5-min Rain = 0
KPD2 181834Z 12005KT 25/13 A2968 RMK A01 T02450127  RH  048%=      5-min Rain = 0
KPD2 181835Z 13005KT 25/13 A2968 RMK A01 T02490125  RH  046%=      5-min Rain = 0
KPD2 181836Z 11006KT 25/13 A2968 RMK A01 T02500128  RH  046%=      5-min Rain = 0
KPD2 181837Z 13003KT 25/13 A2968 RMK A01 T02520126  RH  046%=      5-min Rain = 0
KPD2 181838Z 12005KT 25/13 A2968 RMK A01 T02530129  RH  046%=      5-min Rain = 0
KPD2 181839Z 13008KT 26/13 A2968 RMK A01 T02560128  RH  045%=      5-min Rain = 0
KPD2 181840Z 17008KT 26/13 A2968 RMK A01 T02570128  RH  045%=      5-min Rain = 0
KPD2 181841Z 17004KT 25/13 A2968 RMK A01 T02540125  RH  044%=      5-min Rain = 0
KPD2 181842Z 13005KT 25/13 A2967 RMK A01 T02510126  RH  046%=      5-min Rain = 0
KPD2 181843Z 12006KT 25/13 A2967 RMK A01 T02510128  RH  046%=      5-min Rain = 0
KPD2 181844Z 12004KT 25/13 A2967 RMK A01 T02540129  RH  046%=      5-min Rain = 0
KPD2 181845Z 12003KT 26/13 A2967 RMK A01 T02560128  RH  045%=      5-min Rain = 0
KPD2 181846Z 09004KT 26/13 A2967 RMK A01 T02590129  RH  045%=      5-min Rain = 0
KPD2 181847Z 08002KT 26/13 A2967 RMK A01 T02610131  RH  045%=      5-min Rain = 0
KPD2 181848Z 08003KT 26/13 A2967 RMK A01 T02630132  RH  044%=      5-min Rain = 0
KPD2 181849Z 05004KT 27/13 A2966 RMK A01 T02650134  RH  044%=      5-min Rain = 0
KPD2 181850Z 08003KT 27/13 A2966 RMK A01 T02670133  RH  044%=      5-min Rain = 0
KPD2 181851Z 10004KT 27/13 A2966 RMK A01 T02690131  RH  042%=      5-min Rain = 0
KPD2 181852Z 12001KT 27/13 A2966 RMK A01 T02690132  RH  043%=      5-min Rain = 0
KPD2 181853Z 11003KT 27/13 A2966 RMK A01 T02690131  RH  042%=      5-min Rain = 0
KPD2 181854Z 13003KT 27/13 A2966 RMK A01 T02690130  RH  042%=      5-min Rain = 0
KPD2 181855Z 12004KT 27/13 A2966 RMK A01 T02690131  RH  043%=      5-min Rain = 0
KPD2 181856Z 12003KT 27/13 A2966 RMK A01 T02680132  RH  043%=      5-min Rain = 0
KPD2 181857Z 14002KT 27/13 A2966 RMK A01 T02670131  RH  043%=      5-min Rain = 0
KPD2 181858Z 17001KT 27/13 A2966 RMK A01 T02650127  RH  043%=      5-min Rain = 0
KPD2 181859Z 19001KT 26/13 A2966 RMK A01 T02630129  RH  044%=      5-min Rain = 0
KPD2 181900Z 28001KT 26/13 A2966 RMK A01 T02610131  RH  044%=      5-min Rain = 0
KPD2 181901Z 19001KT 26/13 A2966 RMK A01 T02600131  RH  045%=      5-min Rain = 0
KPD2 181902Z 24004G10KT 26/13 A2966 RMK A01 T02580132  RH  045%=      5-min Rain = 0
KPD2 181903Z 21007G13KT 26/13 A2966 RMK A01 T02580128  RH  044%=      5-min Rain = 0
KPD2 181904Z 19005KT 26/12 A2966 RMK A01 T02580123  RH  043%=      5-min Rain = 0
KPD2 181905Z 22006KT 26/12 A2966 RMK A01 T02580122  RH  043%=      5-min Rain = 0
KPD2 181906Z 24007KT 26/12 A2966 RMK A01 T02580121  RH  042%=      5-min Rain = 0
KPD2 181907Z 24005G10KT 26/12 A2966 RMK A01 T02580120  RH  042%=      5-min Rain = 0
KPD2 181908Z 24005KT 26/12 A2966 RMK A01 T02580120  RH  042%=      5-min Rain = 0
KPD2 181909Z 21005KT 26/12 A2965 RMK A01 T02590118  RH  041%=      5-min Rain = 0
KPD2 181910Z 21004KT 26/12 A2965 RMK A01 T02590117  RH  041%=      5-min Rain = 0
KPD2 181911Z 22004KT 26/12 A2965 RMK A01 T02600117  RH  041%=      5-min Rain = 0
KPD2 181912Z 22002KT 26/12 A2965 RMK A01 T02610117  RH  041%=      5-min Rain = 0
KPD2 181913Z 29001KT 26/12 A2965 RMK A01 T02630121  RH  041%=      5-min Rain = 0
KPD2 181914Z 29001KT 27/12 A2965 RMK A01 T02660120  RH  040%=      5-min Rain = 0
KPD2 181915Z 30003KT 27/12 A2964 RMK A01 T02670121  RH  040%=      5-min Rain = 0
KPD2 181916Z 30002KT 27/12 A2964 RMK A01 T02680122  RH  040%=      5-min Rain = 0
KPD2 181917Z 26003KT 27/12 A2964 RMK A01 T02690123  RH  040%=      5-min Rain = 0
KPD2 181918Z 26004KT 27/12 A2964 RMK A01 T02710123  RH  040%=      5-min Rain = 0
KPD2 181919Z 26002KT 27/12 A2964 RMK A01 T02720124  RH  040%=      5-min Rain = 0
KPD2 181920Z 15003KT 27/13 A2964 RMK A01 T02730126  RH  040%=      5-min Rain = 0
KPD2 181921Z 20004KT 27/12 A2964 RMK A01 T02730123  RH  039%=      5-min Rain = 0
KPD2 181922Z 20004KT 27/12 A2964 RMK A01 T02730124  RH  040%=      5-min Rain = 0
KPD2 181923Z 16003KT 27/13 A2964 RMK A01 T02730125  RH  040%=      5-min Rain = 0
KPD2 181924Z 20006KT 27/13 A2964 RMK A01 T02730128  RH  040%=      5-min Rain = 0
KPD2 181925Z 19006KT 28/13 A2964 RMK A01 T02750127  RH  040%=      5-min Rain = 0
KPD2 181926Z 18005KT 28/13 A2964 RMK A01 T02760127  RH  040%=      5-min Rain = 0
KPD2 181927Z 18006KT 28/13 A2963 RMK A01 T02770129  RH  040%=      5-min Rain = 0
KPD2 181928Z 17006KT 28/13 A2963 RMK A01 T02760127  RH  040%=      5-min Rain = 0
KPD2 181929Z 19004KT 28/13 A2963 RMK A01 T02770129  RH  040%=      5-min Rain = 0
KPD2 181930Z 19007KT 28/13 A2963 RMK A01 T02780128  RH  040%=      5-min Rain = 0
KPD2 181931Z 18007KT 28/13 A2963 RMK A01 T02780130  RH  040%=      5-min Rain = 0
KPD2 181932Z 15006KT 28/13 A2963 RMK A01 T02780130  RH  040%=      5-min Rain = 0
KPD2 181933Z 13008KT 28/13 A2963 RMK A01 T02800131  RH  040%=      5-min Rain = 0
KPD2 181934Z 14006KT 28/13 A2963 RMK A01 T02810130  RH  039%=      5-min Rain = 0
KPD2 181935Z 14007KT 28/13 A2963 RMK A01 T02810132  RH  040%=      5-min Rain = 0
KPD2 181936Z 15007KT 28/13 A2963 RMK A01 T02830132  RH  039%=      5-min Rain = 0
KPD2 181937Z 15006KT 28/13 A2963 RMK A01 T02840132  RH  039%=      5-min Rain = 0
KPD2 181938Z 14006KT 28/13 A2963 RMK A01 T02840132  RH  039%=      5-min Rain = 0
KPD2 181939Z 14005KT 28/13 A2963 RMK A01 T02840131  RH  039%=      5-min Rain = 0
KPD2 181940Z 14003KT 28/13 A2963 RMK A01 T02840131  RH  039%=      5-min Rain = 0
KPD2 181941Z 13004KT 28/13 A2962 RMK A01 T02840133  RH  039%=      5-min Rain = 0
KPD2 181942Z 18008KT 29/13 A2962 RMK A01 T02850130  RH  038%=      5-min Rain = 0
KPD2 181943Z 22003KT 29/13 A2962 RMK A01 T02850127  RH  038%=      5-min Rain = 0
KPD2 181944Z 14005KT 28/13 A2962 RMK A01 T02840130  RH  039%=      5-min Rain = 0
KPD2 181945Z 16004KT 29/13 A2962 RMK A01 T02850130  RH  038%=      5-min Rain = 0
KPD2 181946Z 13005KT 29/13 A2962 RMK A01 T02870131  RH  038%=      5-min Rain = 0
KPD2 181947Z 17006KT 29/13 A2962 RMK A01 T02890131  RH  038%=      5-min Rain = 0
KPD2 181948Z 22003KT 29/13 A2962 RMK A01 T02900131  RH  037%=      5-min Rain = 0
KPD2 181949Z 21001KT 29/13 A2962 RMK A01 T02900130  RH  037%=      5-min Rain = 0
KPD2 181950Z 16003G8KT 29/13 A2962 RMK A01 T02910129  RH  037%=      5-min Rain = 0
KPD2 181951Z 18007KT 29/13 A2962 RMK A01 T02930126  RH  036%=      5-min Rain = 0
KPD2 181952Z 17007G12KT 29/13 A2962 RMK A01 T02920126  RH  036%=      5-min Rain = 0
KPD2 181953Z 16007KT 29/13 A2961 RMK A01 T02910125  RH  036%=      5-min Rain = 0
KPD2 181954Z 19010G16KT 29/13 A2961 RMK A01 T02910126  RH  036%=      5-min Rain = 0
KPD2 181955Z 17009KT 29/13 A2962 RMK A01 T02910126  RH  036%=      5-min Rain = 0
KPD2 181956Z 19010KT 29/12 A2961 RMK A01 T02900124  RH  036%=      5-min Rain = 0
KPD2 181957Z 20004KT 29/12 A2961 RMK A01 T02900124  RH  036%=      5-min Rain = 0
KPD2 181958Z 20004KT 29/13 A2961 RMK A01 T02900126  RH  036%=      5-min Rain = 0
KPD2 181959Z 17007KT 29/13 A2961 RMK A01 T02900127  RH  037%=      5-min Rain = 0
KPD2 182000Z 17008KT 29/13 A2961 RMK A01 T02900125  RH  036%=      5-min Rain = 0
KPD2 182001Z 17007KT 29/12 A2961 RMK A01 T02890124  RH  036%=      5-min Rain = 0
KPD2 182002Z 17004KT 29/12 A2961 RMK A01 T02880124  RH  036%=      5-min Rain = 0
KPD2 182003Z 20002KT 29/13 A2961 RMK A01 T02880125  RH  036%=      5-min Rain = 0
KPD2 182004Z 19008KT 29/13 A2961 RMK A01 T02890125  RH  036%=      5-min Rain = 0
KPD2 182005Z 16007KT 29/12 A2961 RMK A01 T02890122  RH  036%=      5-min Rain = 0
KPD2 182006Z 17006KT 29/12 A2961 RMK A01 T02880124  RH  036%=      5-min Rain = 0
KPD2 182007Z 20007KT 29/12 A2961 RMK A01 T02870124  RH  037%=      5-min Rain = 0
KPD2 182008Z 22006KT 29/12 A296 RMK A01 T02860123  RH  037%=      5-min Rain = 0
KPD2 182009Z 18006KT 29/12 A296 RMK A01 T02850122  RH  036%=      5-min Rain = 0
KPD2 182010Z 18009KT 29/12 A296 RMK A01 T02850123  RH  037%=      5-min Rain = 0
KPD2 182011Z 18007KT 29/12 A296 RMK A01 T02850122  RH  037%=      5-min Rain = 0
KPD2 182012Z 18007KT 29/12 A296 RMK A01 T02870124  RH  037%=      5-min Rain = 0
KPD2 182013Z 18007KT 29/12 A296 RMK A01 T02900123  RH  036%=      5-min Rain = 0
KPD2 182014Z 21007KT 29/12 A296 RMK A01 T02910123  RH  035%=      5-min Rain = 0
KPD2 182015Z 21007KT 29/12 A296 RMK A01 T02930123  RH  035%=      5-min Rain = 0
KPD2 182016Z 20008KT 29/12 A296 RMK A01 T02940123  RH  035%=      5-min Rain = 0
KPD2 182017Z 19007KT 30/12 A296 RMK A01 T02950120  RH  034%=      5-min Rain = 0
KPD2 182018Z 16003KT 30/12 A296 RMK A01 T02950122  RH  034%=      5-min Rain = 0
KPD2 182019Z 16008KT 30/13 A296 RMK A01 T02960125  RH  035%=      5-min Rain = 0
KPD2 182020Z 16009KT 30/12 A296 RMK A01 T02980121  RH  034%=      5-min Rain = 0
KPD2 182021Z 15005KT 30/12 A2959 RMK A01 T02960119  RH  034%=      5-min Rain = 0
KPD2 182022Z 19007KT 29/12 A2959 RMK A01 T02940120  RH  034%=      5-min Rain = 0
KPD2 182023Z 19005KT 29/12 A2959 RMK A01 T02930121  RH  035%=      5-min Rain = 0
KPD2 182024Z 20005KT 29/12 A2959 RMK A01 T02920121  RH  035%=      5-min Rain = 0
KPD2 182025Z 21006KT 29/12 A296 RMK A01 T02940123  RH  035%=      5-min Rain = 0
KPD2 182026Z 19007KT 30/12 A2959 RMK A01 T02960120  RH  034%=      5-min Rain = 0
KPD2 182027Z 22008KT 30/11 A2959 RMK A01 T02970109  RH  031%=      5-min Rain = 0
KPD2 182028Z 26004KT 30/12 A2959 RMK A01 T02970117  RH  033%=      5-min Rain = 0
KPD2 182029Z 21004G11KT 30/11 A2959 RMK A01 T02990111  RH  031%=      5-min Rain = 0
KPD2 182030Z 27008KT 30/11 A2959 RMK A01 T03010108  RH  030%=      5-min Rain = 0
KPD2 182031Z 27007KT 30/10 A2959 RMK A01 T03040104  RH  029%=      5-min Rain = 0
KPD2 182032Z 27006KT 31/10 A2959 RMK A01 T03050099  RH  028%=      5-min Rain = 0
KPD2 182033Z 23008KT 31/10 A2959 RMK A01 T03050100  RH  028%=      5-min Rain = 0
KPD2 182034Z 25008G13KT 31/10 A2959 RMK A01 T03060100  RH  028%=      5-min Rain = 0
KPD2 182035Z 24006KT 31/10 A2959 RMK A01 T03070101  RH  028%=      5-min Rain = 0
KPD2 182036Z 22009G15KT 31/10 A2959 RMK A01 T03080099  RH  027%=      5-min Rain = 0
KPD2 182037Z 25008G14KT 31/10 A2959 RMK A01 T03080098  RH  027%=      5-min Rain = 0
KPD2 182038Z 21002KT 31/10 A2959 RMK A01 T03090102  RH  028%=      5-min Rain = 0
KPD2 182039Z 21006KT 31/10 A2959 RMK A01 T03100098  RH  027%=      5-min Rain = 0
KPD2 182040Z 24003KT 31/10 A2959 RMK A01 T03110099  RH  027%=      5-min Rain = 0
KPD2 182041Z 26006KT 31/10 A2959 RMK A01 T03130104  RH  028%=      5-min Rain = 0
KPD2 182042Z 28009KT 31/10 A2959 RMK A01 T03140102  RH  027%=      5-min Rain = 0
KPD2 182043Z 28006KT 31/10 A2959 RMK A01 T03140097  RH  026%=      5-min Rain = 0
KPD2 182044Z 23005G10KT 31/10 A2959 RMK A01 T03130101  RH  027%=      5-min Rain = 0
KPD2 182045Z 22010KT 31/10 A2959 RMK A01 T03130098  RH  026%=      5-min Rain = 0
KPD2 182046Z 21008KT 31/09 A2959 RMK A01 T03070093  RH  026%=      5-min Rain = 0
KPD2 182047Z 22008KT 30/09 A2959 RMK A01 T03010092  RH  027%=      5-min Rain = 0
KPD2 182048Z 25010G16KT 30/09 A2959 RMK A01 T02970092  RH  028%=      5-min Rain = 0
KPD2 182049Z 22005G10KT 30/09 A2959 RMK A01 T02960092  RH  028%=      5-min Rain = 0
KPD2 182050Z 24007KT 30/10 A2959 RMK A01 T02970096  RH  029%=      5-min Rain = 0
KPD2 182051Z 24006KT 30/10 A2959 RMK A01 T03000096  RH  028%=      5-min Rain = 0
KPD2 182052Z 23004KT 30/10 A2959 RMK A01 T03020096  RH  028%=      5-min Rain = 0
KPD2 182053Z 27005KT 31/10 A2959 RMK A01 T03050098  RH  028%=      5-min Rain = 0
KPD2 182054Z 28004KT 31/10 A2959 RMK A01 T03070101  RH  028%=      5-min Rain = 0
KPD2 182055Z 25004KT 31/10 A2959 RMK A01 T03080101  RH  028%=      5-min Rain = 0
KPD2 182056Z 26004G9KT 31/10 A2959 RMK A01 T03080103  RH  028%=      5-min Rain = 0
KPD2 182057Z 23007KT 31/10 A2959 RMK A01 T03100104  RH  028%=      5-min Rain = 0
KPD2 182058Z 24007KT 31/10 A2959 RMK A01 T03100098  RH  027%=      5-min Rain = 0
KPD2 182059Z 23003KT 31/10 A2959 RMK A01 T03070096  RH  027%=      5-min Rain = 0
KPD2 182100Z 23004G9KT 31/10 A2959 RMK A01 T03050100  RH  028%=      5-min Rain = 0
KPD2 182101Z 25007KT 31/10 A2959 RMK A01 T03050097  RH  028%=      5-min Rain = 0
KPD2 182102Z 22007KT 30/10 A2959 RMK A01 T03040098  RH  028%=      5-min Rain = 0
KPD2 182103Z 24005KT 30/10 A2959 RMK A01 T03040097  RH  028%=      5-min Rain = 0
KPD2 182104Z 27005G10KT 31/10 A2959 RMK A01 T03060100  RH  028%=      5-min Rain = 0
KPD2 182105Z 27006KT 31/10 A2959 RMK A01 T03080103  RH  028%=      5-min Rain = 0
KPD2 182106Z 28007KT 31/10 A2959 RMK A01 T03100101  RH  028%=      5-min Rain = 0
KPD2 182107Z 29009KT 31/10 A2959 RMK A01 T03110100  RH  027%=      5-min Rain = 0
KPD2 182108Z 27005KT 31/10 A2959 RMK A01 T03100098  RH  027%=      5-min Rain = 0
KPD2 182109Z 26006KT 31/10 A2959 RMK A01 T03090098  RH  027%=      5-min Rain = 0
KPD2 182110Z 26003KT 31/10 A2959 RMK A01 T03100101  RH  028%=      5-min Rain = 0
KPD2 182111Z 25004KT 31/10 A2959 RMK A01 T03110095  RH  026%=      5-min Rain = 0
KPD2 182112Z 28003KT 31/10 A2959 RMK A01 T03110098  RH  027%=      5-min Rain = 0
KPD2 182113Z 29005KT 31/10 A2959 RMK A01 T03110102  RH  027%=      5-min Rain = 0
KPD2 182114Z 28003KT 31/10 A2959 RMK A01 T03120101  RH  027%=      5-min Rain = 0
KPD2 182115Z 29003KT 31/11 A2959 RMK A01 T03130106  RH  028%=      5-min Rain = 0
KPD2 182116Z 29004KT 32/10 A2959 RMK A01 T03160104  RH  027%=      5-min Rain = 0
KPD2 182117Z 26005KT 32/10 A2959 RMK A01 T03160101  RH  027%=      5-min Rain = 0
KPD2 182118Z 22004KT 32/10 A2959 RMK A01 T03150098  RH  026%=      5-min Rain = 0
KPD2 182119Z 24003KT 31/10 A2959 RMK A01 T03140099  RH  026%=      5-min Rain = 0
KPD2 182120Z 28006KT 31/10 A2959 RMK A01 T03140100  RH  027%=      5-min Rain = 0
KPD2 182121Z 26008G13KT 31/10 A2959 RMK A01 T03130099  RH  027%=      5-min Rain = 0
KPD2 182122Z 27006KT 31/10 A2959 RMK A01 T03120096  RH  026%=      5-min Rain = 0
KPD2 182123Z 27008KT 31/10 A2959 RMK A01 T03100098  RH  027%=      5-min Rain = 0
KPD2 182124Z 26006KT 31/10 A2959 RMK A01 T03100096  RH  027%=      5-min Rain = 0
KPD2 182125Z 23003KT 31/10 A2959 RMK A01 T03110100  RH  027%=      5-min Rain = 0
KPD2 182126Z 23007G14KT 31/10 A2959 RMK A01 T03120099  RH  027%=      5-min Rain = 0
KPD2 182127Z 23009G15KT 31/10 A2959 RMK A01 T03130096  RH  026%=      5-min Rain = 0
KPD2 182128Z 23006G11KT 31/10 A2959 RMK A01 T03120096  RH  026%=      5-min Rain = 0
KPD2 182129Z 21006KT 31/10 A2959 RMK A01 T03110097  RH  027%=      5-min Rain = 0
KPD2 182130Z 21011KT 31/09 A2959 RMK A01 T03110093  RH  026%=      5-min Rain = 0
KPD2 182131Z 22009G14KT 31/09 A2959 RMK A01 T03080090  RH  026%=      5-min Rain = 0
KPD2 182132Z 22008KT 31/09 A2959 RMK A01 T03060089  RH  026%=      5-min Rain = 0
KPD2 182133Z 22010KT 31/09 A2959 RMK A01 T03050088  RH  026%=      5-min Rain = 0
KPD2 182134Z 22008G13KT 31/09 A2959 RMK A01 T03050086  RH  026%=      5-min Rain = 0
KPD2 182135Z 22007KT 30/09 A2959 RMK A01 T03040085  RH  026%=      5-min Rain = 0
KPD2 182136Z 23005KT 30/09 A2959 RMK A01 T03040086  RH  026%=      5-min Rain = 0
KPD2 182137Z 25006KT 30/09 A2959 RMK A01 T03040088  RH  026%=      5-min Rain = 0
KPD2 182138Z 24006KT 31/09 A2958 RMK A01 T03050089  RH  026%=      5-min Rain = 0
KPD2 182139Z 24004KT 31/09 A2958 RMK A01 T03070091  RH  026%=      5-min Rain = 0
KPD2 182140Z 26005KT 31/09 A2958 RMK A01 T03080093  RH  026%=      5-min Rain = 0
KPD2 182141Z 28010KT 31/09 A2959 RMK A01 T03090094  RH  026%=      5-min Rain = 0
KPD2 182142Z 27006KT 31/09 A2959 RMK A01 T03080092  RH  026%=      5-min Rain = 0
KPD2 182143Z 27007KT 31/09 A2958 RMK A01 T03060090  RH  026%=      5-min Rain = 0
KPD2 182144Z 25009KT 30/09 A2958 RMK A01 T03040090  RH  026%=      5-min Rain = 0
KPD2 182145Z 25006G11KT 30/09 A2958 RMK A01 T03040089  RH  026%=      5-min Rain = 0
KPD2 182146Z 23005KT 30/09 A2958 RMK A01 T03030089  RH  026%=      5-min Rain = 0
KPD2 182147Z 26004KT 30/09 A2958 RMK A01 T03040092  RH  027%=      5-min Rain = 0
KPD2 182148Z 25003KT 31/10 A2958 RMK A01 T03050095  RH  027%=      5-min Rain = 0
KPD2 182149Z 26006KT 31/10 A2959 RMK A01 T03070095  RH  027%=      5-min Rain = 0
KPD2 182150Z 24008G13KT 31/09 A2959 RMK A01 T03080089  RH  026%=      5-min Rain = 0
KPD2 182151Z 28005G11KT 31/09 A2958 RMK A01 T03070087  RH  026%=      5-min Rain = 0
KPD2 182152Z 24007KT 31/09 A2958 RMK A01 T03060087  RH  026%=      5-min Rain = 0
KPD2 182153Z 24006KT 31/09 A2958 RMK A01 T03060089  RH  026%=      5-min Rain = 0
KPD2 182154Z 22007KT 31/09 A2958 RMK A01 T03060089  RH  026%=      5-min Rain = 0
KPD2 182155Z 26007G12KT 31/09 A2958 RMK A01 T03060087  RH  026%=      5-min Rain = 0
KPD2 182156Z 24007KT 31/08 A2958 RMK A01 T03060083  RH  025%=      5-min Rain = 0
KPD2 182157Z 23007G12KT 31/09 A2958 RMK A01 T03060085  RH  025%=      5-min Rain = 0
KPD2 182158Z 22006KT 31/09 A2958 RMK A01 T03050088  RH  026%=      5-min Rain = 0
KPD2 182159Z 27007KT 31/09 A2958 RMK A01 T03050087  RH  026%=      5-min Rain = 0
KPD2 182200Z 22011KT 31/08 A2958 RMK A01 T03050084  RH  025%=      5-min Rain = 0
KPD2 182201Z 21006KT 30/08 A2958 RMK A01 T03040083  RH  025%=      5-min Rain = 0
KPD2 182202Z 22008G13KT 30/09 A2958 RMK A01 T03040085  RH  026%=      5-min Rain = 0
KPD2 182203Z 23009KT 30/08 A2959 RMK A01 T03040084  RH  025%=      5-min Rain = 0
KPD2 182204Z 24005KT 30/09 A2959 RMK A01 T03040086  RH  026%=      5-min Rain = 0
KPD2 182205Z 21006G11KT 30/09 A2959 RMK A01 T03040088  RH  026%=      5-min Rain = 0
KPD2 182206Z 22009KT 30/09 A2958 RMK A01 T03040085  RH  026%=      5-min Rain = 0
KPD2 182207Z 24006KT 30/09 A2959 RMK A01 T03040088  RH  026%=      5-min Rain = 0
KPD2 182208Z 23005KT 30/09 A2959 RMK A01 T03040090  RH  026%=      5-min Rain = 0
KPD2 182209Z 22004KT 31/09 A2959 RMK A01 T03050090  RH  026%=      5-min Rain = 0
KPD2 182210Z 21003KT 31/09 A2958 RMK A01 T03050090  RH  026%=      5-min Rain = 0
KPD2 182211Z 23007KT 31/09 A2959 RMK A01 T03050088  RH  026%=      5-min Rain = 0
KPD2 182212Z 23010G15KT 31/09 A2959 RMK A01 T03050086  RH  026%=      5-min Rain = 0
KPD2 182213Z 22009KT 30/08 A2959 RMK A01 T03030083  RH  025%=      5-min Rain = 0
KPD2 182214Z 22006KT 30/08 A2959 RMK A01 T03020082  RH  025%=      5-min Rain = 0
KPD2 182215Z 23003KT 30/09 A2959 RMK A01 T03020085  RH  026%=      5-min Rain = 0
KPD2 182216Z 26008KT 30/09 A2959 RMK A01 T03020085  RH  026%=      5-min Rain = 0
KPD2 182217Z 22008KT 30/09 A2959 RMK A01 T03020085  RH  026%=      5-min Rain = 0
KPD2 182218Z 25004KT 30/09 A2959 RMK A01 T03010086  RH  026%=      5-min Rain = 0
KPD2 182219Z 27004KT 30/09 A2959 RMK A01 T03010088  RH  027%=      5-min Rain = 0
KPD2 182220Z 26004KT 30/09 A2959 RMK A01 T03010087  RH  026%=      5-min Rain = 0
KPD2 182221Z 26004KT 30/09 A2959 RMK A01 T03020091  RH  027%=      5-min Rain = 0
KPD2 182222Z 24005KT 30/09 A2959 RMK A01 T03030090  RH  027%=      5-min Rain = 0
KPD2 182223Z 21004KT 30/09 A2959 RMK A01 T03040089  RH  026%=      5-min Rain = 0
KPD2 182224Z 24004KT 30/09 A2959 RMK A01 T03040091  RH  027%=      5-min Rain = 0
KPD2 182225Z 22004KT 30/09 A2959 RMK A01 T03040089  RH  026%=      5-min Rain = 0
KPD2 182226Z 22006G11KT 30/09 A2959 RMK A01 T03040087  RH  026%=      5-min Rain = 0
KPD2 182227Z 25006G11KT 30/09 A2959 RMK A01 T03040087  RH  026%=      5-min Rain = 0
KPD2 182228Z 28007KT 30/09 A2959 RMK A01 T03030085  RH  026%=      5-min Rain = 0
KPD2 182229Z 26007KT 30/08 A2959 RMK A01 T03020084  RH  026%=      5-min Rain = 0
KPD2 182230Z 27006KT 30/08 A2959 RMK A01 T03010079  RH  025%=      5-min Rain = 0
KPD2 182231Z 28006KT 30/08 A2959 RMK A01 T03000082  RH  026%=      5-min Rain = 0
KPD2 182232Z 28005KT 30/08 A2959 RMK A01 T02990077  RH  025%=      5-min Rain = 0
KPD2 182233Z 28005KT 30/08 A2959 RMK A01 T02980078  RH  025%=      5-min Rain = 0
KPD2 182234Z 28006KT 30/08 A2959 RMK A01 T02980080  RH  026%=      5-min Rain = 0
KPD2 182235Z 29007G12KT 30/08 A2959 RMK A01 T02980082  RH  026%=      5-min Rain = 0
KPD2 182236Z 28009KT 30/08 A2959 RMK A01 T02980080  RH  026%=      5-min Rain = 0
KPD2 182237Z 26006KT 30/08 A2959 RMK A01 T02980079  RH  025%=      5-min Rain = 0
KPD2 182238Z 25006G12KT 30/08 A2959 RMK A01 T02970080  RH  026%=      5-min Rain = 0
KPD2 182239Z 24002KT 30/08 A2959 RMK A01 T02970081  RH  026%=      5-min Rain = 0
KPD2 182240Z 23005KT 30/08 A2959 RMK A01 T02970082  RH  026%=      5-min Rain = 0
KPD2 182241Z 23005KT 30/08 A2959 RMK A01 T02970083  RH  026%=      5-min Rain = 0
KPD2 182242Z 26004KT 30/08 A2959 RMK A01 T02980084  RH  026%=      5-min Rain = 0
KPD2 182243Z 28005KT 30/09 A2959 RMK A01 T02980085  RH  026%=      5-min Rain = 0
KPD2 182244Z 27007G13KT 30/08 A2959 RMK A01 T02980083  RH  026%=      5-min Rain = 0
KPD2 182245Z 28006G13KT 30/08 A2959 RMK A01 T02970081  RH  026%=      5-min Rain = 0
KPD2 182246Z 26003KT 30/08 A2959 RMK A01 T02960081  RH  026%=      5-min Rain = 0
KPD2 182247Z 25006KT 30/08 A2959 RMK A01 T02960082  RH  026%=      5-min Rain = 0
KPD2 182248Z 22007G12KT 30/08 A2959 RMK A01 T02960083  RH  026%=      5-min Rain = 0
KPD2 182249Z 23004KT 30/08 A2959 RMK A01 T02960083  RH  026%=      5-min Rain = 0
KPD2 182250Z 21008G14KT 30/08 A2959 RMK A01 T02960079  RH  026%=      5-min Rain = 0
KPD2 182251Z 22005G11KT 30/08 A2959 RMK A01 T02960080  RH  026%=      5-min Rain = 0
KPD2 182252Z 23004G10KT 30/08 A2959 RMK A01 T02950083  RH  027%=      5-min Rain = 0
KPD2 182253Z 22006KT 30/08 A2959 RMK A01 T02950082  RH  026%=      5-min Rain = 0
KPD2 182254Z 24003G9KT 30/08 A2959 RMK A01 T02950083  RH  027%=      5-min Rain = 0
KPD2 182255Z 23003KT 30/09 A2959 RMK A01 T02950086  RH  027%=      5-min Rain = 0
KPD2 182256Z 24004KT 30/09 A2959 RMK A01 T02950086  RH  027%=      5-min Rain = 0
KPD2 182257Z 23006KT 30/08 A2959 RMK A01 T02950083  RH  027%=      5-min Rain = 0
KPD2 182258Z 25007KT 30/08 A2959 RMK A01 T02950083  RH  027%=      5-min Rain = 0
KPD2 182259Z 24005KT 29/08 A2959 RMK A01 T02940084  RH  027%=      5-min Rain = 0
KPD2 182300Z 23003G8KT 29/08 A2959 RMK A01 T02930084  RH  027%=      5-min Rain = 0
KPD2 182301Z 26004KT 29/09 A2959 RMK A01 T02930086  RH  027%=      5-min Rain = 0
KPD2 182302Z 27003KT 29/09 A2959 RMK A01 T02920086  RH  027%=      5-min Rain = 0
KPD2 182303Z 25003KT 29/09 A2959 RMK A01 T02920086  RH  027%=      5-min Rain = 0
KPD2 182304Z 25002KT 29/08 A2959 RMK A01 T02920083  RH  027%=      5-min Rain = 0
KPD2 182305Z 26003KT 29/08 A2959 RMK A01 T02910082  RH  027%=      5-min Rain = 0
KPD2 182306Z 24005G10KT 29/08 A2959 RMK A01 T02900081  RH  027%=      5-min Rain = 0
KPD2 182307Z 24005KT 29/08 A2959 RMK A01 T02880077  RH  027%=      5-min Rain = 0
KPD2 182308Z 25005KT 29/08 A2959 RMK A01 T02850076  RH  027%=      5-min Rain = 0
KPD2 182309Z 26002KT 28/08 A2959 RMK A01 T02830079  RH  028%=      5-min Rain = 0
KPD2 182310Z 25003KT 28/08 A2959 RMK A01 T02810081  RH  028%=      5-min Rain = 0
KPD2 182311Z 25007KT 28/08 A2959 RMK A01 T02800077  RH  028%=      5-min Rain = 0
KPD2 182312Z 26004KT 28/07 A296 RMK A01 T02780073  RH  027%=      5-min Rain = 0
KPD2 182313Z 24002KT 28/08 A2959 RMK A01 T02770075  RH  028%=      5-min Rain = 0
KPD2 182314Z 26001KT 28/08 A296 RMK A01 T02770079  RH  029%=      5-min Rain = 0
KPD2 182315Z 24002KT 28/08 A2959 RMK A01 T02750077  RH  029%=      5-min Rain = 0
KPD2 182316Z 25003KT 27/08 A296 RMK A01 T02740078  RH  029%=      5-min Rain = 0
KPD2 182317Z 24001KT 27/08 A296 RMK A01 T02730080  RH  030%=      5-min Rain = 0
KPD2 182318Z 24003KT 27/08 A296 RMK A01 T02710080  RH  030%=      5-min Rain = 0
KPD2 182319Z 25003KT 27/08 A296 RMK A01 T02690079  RH  030%=      5-min Rain = 0
KPD2 182320Z 30002KT 27/08 A296 RMK A01 T02680081  RH  031%=      5-min Rain = 0
KPD2 182321Z 26003KT 27/08 A296 RMK A01 T02660080  RH  031%=      5-min Rain = 0
KPD2 182322Z 23003KT 27/08 A296 RMK A01 T02660079  RH  031%=      5-min Rain = 0
KPD2 182323Z 28001KT 26/08 A296 RMK A01 T02640081  RH  031%=      5-min Rain = 0
KPD2 182324Z 27004KT 26/08 A296 RMK A01 T02640079  RH  031%=      5-min Rain = 0
KPD2 182325Z 25003KT 26/08 A296 RMK A01 T02630078  RH  031%=      5-min Rain = 0
KPD2 182326Z 29003KT 26/08 A296 RMK A01 T02630081  RH  032%=      5-min Rain = 0
KPD2 182327Z 28003KT 26/08 A296 RMK A01 T02620080  RH  032%=      5-min Rain = 0
KPD2 182328Z 30003KT 26/08 A296 RMK A01 T02610079  RH  032%=      5-min Rain = 0
KPD2 182329Z 28005KT 26/08 A296 RMK A01 T02600078  RH  032%=      5-min Rain = 0
KPD2 182330Z 26006KT 26/07 A296 RMK A01 T02600074  RH  031%=      5-min Rain = 0
KPD2 182331Z 27007KT 26/07 A296 RMK A01 T02610074  RH  030%=      5-min Rain = 0
KPD2 182332Z 26004KT 26/07 A296 RMK A01 T02630073  RH  030%=      5-min Rain = 0
KPD2 182333Z 26004KT 27/07 A296 RMK A01 T02650073  RH  030%=      5-min Rain = 0
KPD2 182334Z 28004KT 27/08 A296 RMK A01 T02660075  RH  030%=      5-min Rain = 0
KPD2 182335Z 27003G8KT 27/08 A296 RMK A01 T02660075  RH  030%=      5-min Rain = 0
KPD2 182336Z 26006KT 27/08 A296 RMK A01 T02670075  RH  030%=      5-min Rain = 0
KPD2 182337Z 26005KT 27/07 A296 RMK A01 T02670073  RH  029%=      5-min Rain = 0
KPD2 182338Z 25006KT 27/07 A296 RMK A01 T02680074  RH  029%=      5-min Rain = 0
KPD2 182339Z 26005KT 27/08 A296 RMK A01 T02680075  RH  029%=      5-min Rain = 0
KPD2 182340Z 25005KT 27/07 A296 RMK A01 T02680074  RH  029%=      5-min Rain = 0
KPD2 182341Z 26004KT 27/08 A296 RMK A01 T02680076  RH  030%=      5-min Rain = 0
KPD2 182342Z 25003KT 27/08 A296 RMK A01 T02680075  RH  029%=      5-min Rain = 0
KPD2 182343Z 27003KT 27/08 A296 RMK A01 T02680079  RH  030%=      5-min Rain = 0
KPD2 182344Z 26004KT 27/08 A296 RMK A01 T02670078  RH  030%=      5-min Rain = 0
KPD2 182345Z 26004KT 27/08 A296 RMK A01 T02660076  RH  030%=      5-min Rain = 0
KPD2 182346Z 25005KT 27/08 A296 RMK A01 T02660076  RH  030%=      5-min Rain = 0
KPD2 182347Z 27005KT 27/08 A2961 RMK A01 T02660077  RH  030%=      5-min Rain = 0
KPD2 182348Z 26005KT 27/08 A2961 RMK A01 T02650077  RH  030%=      5-min Rain = 0
KPD2 182349Z 26005KT 27/08 A2961 RMK A01 T02650076  RH  030%=      5-min Rain = 0
KPD2 182350Z 24002KT 27/08 A296 RMK A01 T02650078  RH  030%=      5-min Rain = 0
KPD2 182351Z 26008KT 27/08 A296 RMK A01 T02650077  RH  030%=      5-min Rain = 0
KPD2 182352Z 26007KT 27/08 A296 RMK A01 T02650076  RH  030%=      5-min Rain = 0
KPD2 182353Z 26008KT 27/08 A296 RMK A01 T02650077  RH  030%=      5-min Rain = 0
KPD2 182354Z 25008KT 27/08 A296 RMK A01 T02650076  RH  030%=      5-min Rain = 0
KPD2 182355Z 24005G10KT 27/08 A296 RMK A01 T02660077  RH  030%=      5-min Rain = 0
KPD2 182356Z 26005KT 27/08 A296 RMK A01 T02660078  RH  030%=      5-min Rain = 0
KPD2 182357Z 25006KT 27/08 A296 RMK A01 T02650078  RH  030%=      5-min Rain = 0
KPD2 182358Z 26004KT 27/08 A296 RMK A01 T02650078  RH  031%=      5-min Rain = 0
KPD2 182359Z 27004KT 27/08 A296 RMK A01 T02650079  RH  031%=      5-min Rain = 0
KPD2 190000Z 27006KT 26/08 A296 RMK A01 T02640079  RH  031%=      5-min Rain = 0
KPD2 190001Z 27004KT 26/08 A296 RMK A01 T02630078  RH  031%=      5-min Rain = 0
KPD2 190002Z 28006KT 26/08 A296 RMK A01 T02630078  RH  031%=      5-min Rain = 0
KPD2 190003Z 26004KT 26/08 A296 RMK A01 T02620079  RH  031%=      5-min Rain = 0
KPD2 190004Z 27005KT 26/08 A296 RMK A01 T02620077  RH  031%=      5-min Rain = 0
KPD2 190005Z 27005KT 26/08 A296 RMK A01 T02620077  RH  031%=      5-min Rain = 0
KPD2 190006Z 27005KT 26/08 A2961 RMK A01 T02610078  RH  031%=      5-min Rain = 0
KPD2 190007Z 24006KT 26/08 A2961 RMK A01 T02610078  RH  031%=      5-min Rain = 0
KPD2 190008Z 25004KT 26/08 A2961 RMK A01 T02600076  RH  031%=      5-min Rain = 0
KPD2 190009Z 25004KT 26/08 A296 RMK A01 T02610076  RH  031%=      5-min Rain = 0
KPD2 190010Z 23002KT 26/08 A296 RMK A01 T02600077  RH  031%=      5-min Rain = 0
KPD2 190011Z 20001KT 26/08 A296 RMK A01 T02600077  RH  031%=      5-min Rain = 0
KPD2 190012Z 26001KT 26/08 A296 RMK A01 T02600078  RH  031%=      5-min Rain = 0
KPD2 190013Z 24003KT 26/08 A2961 RMK A01 T02580076  RH  031%=      5-min Rain = 0
KPD2 190014Z 22003KT 26/08 A2961 RMK A01 T02580075  RH  031%=      5-min Rain = 0
KPD2 190015Z 24003KT 26/07 A2961 RMK A01 T02580071  RH  030%=      5-min Rain = 0
KPD2 190016Z 26005KT 26/07 A2961 RMK A01 T02580071  RH  030%=      5-min Rain = 0
KPD2 190017Z 23003KT 26/07 A296 RMK A01 T02580068  RH  030%=      5-min Rain = 0
KPD2 190018Z 24003KT 26/07 A296 RMK A01 T02580067  RH  030%=      5-min Rain = 0
KPD2 190019Z 25005KT 26/07 A296 RMK A01 T02580065  RH  029%=      5-min Rain = 0
KPD2 190020Z 24006KT 26/06 A2961 RMK A01 T02580063  RH  029%=      5-min Rain = 0
KPD2 190021Z 26006KT 26/06 A296 RMK A01 T02580061  RH  028%=      5-min Rain = 0
KPD2 190022Z 25004KT 26/06 A296 RMK A01 T02590062  RH  028%=      5-min Rain = 0
KPD2 190023Z 27003KT 26/06 A296 RMK A01 T02590062  RH  028%=      5-min Rain = 0
KPD2 190024Z 27004KT 26/06 A2961 RMK A01 T02590062  RH  028%=      5-min Rain = 0
KPD2 190025Z 27005KT 26/06 A2961 RMK A01 T02580064  RH  029%=      5-min Rain = 0
KPD2 190026Z 26006G11KT 26/06 A2961 RMK A01 T02580062  RH  029%=      5-min Rain = 0
KPD2 190027Z 27006KT 26/06 A2961 RMK A01 T02580061  RH  028%=      5-min Rain = 0
KPD2 190028Z 27006G11KT 26/06 A2961 RMK A01 T02590062  RH  028%=      5-min Rain = 0
KPD2 190029Z 27006KT 26/06 A2961 RMK A01 T02590062  RH  028%=      5-min Rain = 0
KPD2 190030Z 27005KT 26/06 A2961 RMK A01 T02600062  RH  028%=      5-min Rain = 0
KPD2 190031Z 27004KT 26/06 A2961 RMK A01 T02600062  RH  028%=      5-min Rain = 0
KPD2 190032Z 27006KT 26/06 A2961 RMK A01 T02600063  RH  028%=      5-min Rain = 0
KPD2 190033Z 27005KT 26/06 A2961 RMK A01 T02600064  RH  029%=      5-min Rain = 0
KPD2 190034Z 27004KT 26/06 A2961 RMK A01 T02600064  RH  029%=      5-min Rain = 0
KPD2 190035Z 26005KT 26/06 A2961 RMK A01 T02590064  RH  029%=      5-min Rain = 0
KPD2 190036Z 26007KT 26/07 A2961 RMK A01 T02590065  RH  029%=      5-min Rain = 0
KPD2 190037Z 26006KT 26/06 A2961 RMK A01 T02580064  RH  029%=      5-min Rain = 0
KPD2 190038Z 27006KT 26/06 A2961 RMK A01 T02580064  RH  029%=      5-min Rain = 0
KPD2 190039Z 26004KT 26/07 A2961 RMK A01 T02580065  RH  029%=      5-min Rain = 0
KPD2 190040Z 27005KT 26/07 A2961 RMK A01 T02570066  RH  030%=      5-min Rain = 0
KPD2 190041Z 26009G14KT 26/07 A2962 RMK A01 T02570066  RH  030%=      5-min Rain = 0
KPD2 190042Z 28005KT 26/06 A2962 RMK A01 T02560064  RH  029%=      5-min Rain = 0
KPD2 190043Z 28005KT 26/07 A2962 RMK A01 T02570066  RH  029%=      5-min Rain = 0
KPD2 190044Z 28005G11KT 26/07 A2962 RMK A01 T02570066  RH  029%=      5-min Rain = 0
KPD2 190045Z 27006KT 26/07 A2962 RMK A01 T02570065  RH  029%=      5-min Rain = 0
KPD2 190046Z 28006KT 26/07 A2962 RMK A01 T02580065  RH  029%=      5-min Rain = 0
KPD2 190047Z 28004KT 26/07 A2962 RMK A01 T02580065  RH  029%=      5-min Rain = 0
KPD2 190048Z 27005KT 26/07 A2963 RMK A01 T02580065  RH  029%=      5-min Rain = 0
KPD2 190049Z 26003KT 26/07 A2963 RMK A01 T02580066  RH  029%=      5-min Rain = 0
KPD2 190050Z 28003KT 26/07 A2963 RMK A01 T02580067  RH  030%=      5-min Rain = 0
KPD2 190051Z 27003KT 26/07 A2963 RMK A01 T02570067  RH  030%=      5-min Rain = 0
KPD2 190052Z 27004G9KT 26/06 A2963 RMK A01 T02560064  RH  029%=      5-min Rain = 0
KPD2 190053Z 28006KT 26/06 A2963 RMK A01 T02550063  RH  029%=      5-min Rain = 0
KPD2 190054Z 28007KT 26/06 A2963 RMK A01 T02550060  RH  029%=      5-min Rain = 0
KPD2 190055Z 28008G14KT 26/06 A2963 RMK A01 T02550057  RH  028%=      5-min Rain = 0
KPD2 190056Z 28008KT 26/05 A2963 RMK A01 T02550053  RH  027%=      5-min Rain = 0
KPD2 190057Z 29007KT 26/05 A2963 RMK A01 T02560053  RH  027%=      5-min Rain = 0
KPD2 190058Z 29008G14KT 26/05 A2963 RMK A01 T02570053  RH  027%=      5-min Rain = 0
KPD2 190059Z 28007KT 26/05 A2963 RMK A01 T02570053  RH  027%=      5-min Rain = 0
KPD2 190100Z 27008KT 26/05 A2963 RMK A01 T02570051  RH  027%=      5-min Rain = 0
KPD2 190101Z 29007KT 26/05 A2963 RMK A01 T02570051  RH  027%=      5-min Rain = 0
KPD2 190102Z 29006G12KT 26/05 A2963 RMK A01 T02580052  RH  027%=      5-min Rain = 0
KPD2 190103Z 28008G13KT 26/05 A2963 RMK A01 T02570052  RH  027%=      5-min Rain = 0
KPD2 190104Z 28012KT 26/05 A2964 RMK A01 T02570051  RH  027%=      5-min Rain = 0
KPD2 190105Z 28011KT 26/05 A2964 RMK A01 T02570051  RH  027%=      5-min Rain = 0
KPD2 190106Z 29006KT 26/05 A2964 RMK A01 T02570051  RH  027%=      5-min Rain = 0
KPD2 190107Z 27009G15KT 26/05 A2964 RMK A01 T02570053  RH  027%=      5-min Rain = 0
KPD2 190108Z 29009G17KT 26/05 A2964 RMK A01 T02560052  RH  027%=      5-min Rain = 0
KPD2 190109Z 28007KT 26/05 A2964 RMK A01 T02550051  RH  027%=      5-min Rain = 0
KPD2 190110Z 30007G13KT 26/05 A2964 RMK A01 T02550051  RH  027%=      5-min Rain = 0
KPD2 190111Z 28006KT 25/05 A2964 RMK A01 T02540051  RH  027%=      5-min Rain = 0
KPD2 190112Z 27007KT 25/05 A2964 RMK A01 T02540051  RH  027%=      5-min Rain = 0
KPD2 190113Z 28007G14KT 25/05 A2964 RMK A01 T02530050  RH  027%=      5-min Rain = 0
KPD2 190114Z 24006KT 25/05 A2964 RMK A01 T02530050  RH  027%=      5-min Rain = 0
KPD2 190115Z 24008KT 25/05 A2964 RMK A01 T02530049  RH  027%=      5-min Rain = 0
KPD2 190116Z 25004KT 25/05 A2964 RMK A01 T02530049  RH  027%=      5-min Rain = 0
KPD2 190117Z 24007KT 25/05 A2964 RMK A01 T02540049  RH  027%=      5-min Rain = 0
KPD2 190118Z 25008G14KT 25/05 A2964 RMK A01 T02540048  RH  027%=      5-min Rain = 0
KPD2 190119Z 25006KT 25/05 A2964 RMK A01 T02540048  RH  027%=      5-min Rain = 0
KPD2 190120Z 25009G20KT 25/05 A2965 RMK A01 T02540048  RH  027%=      5-min Rain = 0
KPD2 190121Z 28004KT 25/05 A2965 RMK A01 T02540048  RH  026%=      5-min Rain = 0
KPD2 190122Z 23007G12KT 26/05 A2965 RMK A01 T02550050  RH  027%=      5-min Rain = 0
KPD2 190123Z 26005KT 26/05 A2965 RMK A01 T02550049  RH  027%=      5-min Rain = 0
KPD2 190124Z 23010G15KT 26/05 A2965 RMK A01 T02550049  RH  027%=      5-min Rain = 0
KPD2 190125Z 25005KT 25/05 A2965 RMK A01 T02540050  RH  027%=      5-min Rain = 0
KPD2 190126Z 22007KT 25/05 A2965 RMK A01 T02540050  RH  027%=      5-min Rain = 0
KPD2 190127Z 22007G12KT 25/05 A2965 RMK A01 T02530051  RH  027%=      5-min Rain = 0
KPD2 190128Z 22007G14KT 25/05 A2965 RMK A01 T02530051  RH  027%=      5-min Rain = 0
KPD2 190129Z 24004G13KT 25/05 A2966 RMK A01 T02520052  RH  027%=      5-min Rain = 0
KPD2 190130Z 22007G14KT 25/05 A2965 RMK A01 T02510052  RH  028%=      5-min Rain = 0
KPD2 190131Z 25007G12KT 25/05 A2965 RMK A01 T02510052  RH  028%=      5-min Rain = 0
KPD2 190132Z 26007KT 25/05 A2965 RMK A01 T02510052  RH  028%=      5-min Rain = 0
KPD2 190133Z 24007KT 25/05 A2965 RMK A01 T02500052  RH  028%=      5-min Rain = 0
KPD2 190134Z 22004KT 25/05 A2966 RMK A01 T02510052  RH  028%=      5-min Rain = 0
KPD2 190135Z 24006G12KT 25/05 A2966 RMK A01 T02510052  RH  028%=      5-min Rain = 0
KPD2 190136Z 23006KT 25/05 A2966 RMK A01 T02500053  RH  028%=      5-min Rain = 0
KPD2 190137Z 23004G9KT 25/05 A2966 RMK A01 T02510053  RH  028%=      5-min Rain = 0
KPD2 190138Z 26006G12KT 25/05 A2966 RMK A01 T02500053  RH  028%=      5-min Rain = 0
KPD2 190139Z 26007G13KT 25/05 A2966 RMK A01 T02490053  RH  028%=      5-min Rain = 0
KPD2 190140Z 25010KT 25/05 A2966 RMK A01 T02490053  RH  028%=      5-min Rain = 0
KPD2 190141Z 26010KT 25/05 A2966 RMK A01 T02490054  RH  028%=      5-min Rain = 0
KPD2 190142Z 25012G17KT 25/05 A2966 RMK A01 T02490054  RH  028%=      5-min Rain = 0
KPD2 190143Z 26006G13KT 25/05 A2966 RMK A01 T02500054  RH  028%=      5-min Rain = 0
KPD2 190144Z 26010G18KT 25/06 A2967 RMK A01 T02500055  RH  029%=      5-min Rain = 0
KPD2 190145Z 24008G17KT 25/06 A2967 RMK A01 T02500056  RH  029%=      5-min Rain = 0
KPD2 190146Z 23009KT 25/06 A2967 RMK A01 T02490057  RH  029%=      5-min Rain = 0
KPD2 190147Z 26013G19KT 25/06 A2967 RMK A01 T02480057  RH  029%=      5-min Rain = 0
KPD2 190148Z 26009G16KT 25/06 A2967 RMK A01 T02480058  RH  030%=      5-min Rain = 0
KPD2 190149Z 26009KT 25/06 A2967 RMK A01 T02480059  RH  030%=      5-min Rain = 0
KPD2 190150Z 24009G15KT 25/06 A2967 RMK A01 T02470058  RH  030%=      5-min Rain = 0
KPD2 190151Z 24010G15KT 25/06 A2967 RMK A01 T02470058  RH  030%=      5-min Rain = 0
KPD2 190152Z 23009G16KT 25/06 A2967 RMK A01 T02470058  RH  030%=      5-min Rain = 0
KPD2 190153Z 24004KT 25/06 A2968 RMK A01 T02470059  RH  030%=      5-min Rain = 0
KPD2 190154Z 24005G10KT 25/06 A2968 RMK A01 T02470059  RH  030%=      5-min Rain = 0
KPD2 190155Z 22005G11KT 25/06 A2968 RMK A01 T02460059  RH  030%=      5-min Rain = 0
KPD2 190156Z 24008G13KT 25/06 A2968 RMK A01 T02460060  RH  030%=      5-min Rain = 0
KPD2 190157Z 23010G15KT 25/06 A2968 RMK A01 T02460060  RH  030%=      5-min Rain = 0
KPD2 190158Z 25010G15KT 25/06 A2968 RMK A01 T02450060  RH  030%=      5-min Rain = 0
KPD2 190159Z 24008KT 25/06 A2968 RMK A01 T02460062  RH  031%=      5-min Rain = 0
KPD2 190200Z 22007G13KT 25/06 A2968 RMK A01 T02450064  RH  031%=      5-min Rain = 0
KPD2 190201Z 22006G13KT 24/06 A2969 RMK A01 T02440064  RH  032%=      5-min Rain = 0
KPD2 190202Z 23011G16KT 24/07 A2968 RMK A01 T02430065  RH  032%=      5-min Rain = 0
KPD2 190203Z 23012G19KT 24/07 A2968 RMK A01 T02430066  RH  032%=      5-min Rain = 0
KPD2 190204Z 21012KT 24/07 A2968 RMK A01 T02420066  RH  032%=      5-min Rain = 0
KPD2 190205Z 21011G16KT 24/07 A2968 RMK A01 T02410067  RH  033%=      5-min Rain = 0
KPD2 190206Z 24014G22KT 24/07 A2968 RMK A01 T02410067  RH  033%=      5-min Rain = 0
KPD2 190207Z 25005KT 24/07 A2968 RMK A01 T02400067  RH  033%=      5-min Rain = 0
KPD2 190208Z 23010G18KT 24/07 A2968 RMK A01 T02390068  RH  033%=      5-min Rain = 0
KPD2 190209Z 22006KT 24/07 A2968 RMK A01 T02390068  RH  033%=      5-min Rain = 0
KPD2 190210Z 23005G10KT 24/07 A2968 RMK A01 T02390068  RH  033%=      5-min Rain = 0
KPD2 190211Z 24007KT 24/07 A2968 RMK A01 T02380069  RH  034%=      5-min Rain = 0
KPD2 190212Z 23004KT 24/07 A2968 RMK A01 T02380069  RH  034%=      5-min Rain = 0
KPD2 190213Z 25004KT 24/07 A2968 RMK A01 T02370070  RH  034%=      5-min Rain = 0
KPD2 190214Z 18006KT 24/07 A2968 RMK A01 T02370070  RH  034%=      5-min Rain = 0
KPD2 190215Z 19005G11KT 24/07 A2969 RMK A01 T02360071  RH  035%=      5-min Rain = 0
KPD2 190216Z 24006G12KT 24/07 A2969 RMK A01 T02350072  RH  035%=      5-min Rain = 0
KPD2 190217Z 21009G15KT 24/07 A2969 RMK A01 T02350073  RH  035%=      5-min Rain = 0
KPD2 190218Z 21006KT 23/07 A2968 RMK A01 T02340073  RH  036%=      5-min Rain = 0
KPD2 190219Z 19004KT 23/07 A2968 RMK A01 T02330073  RH  036%=      5-min Rain = 0
KPD2 190220Z 20005G12KT 23/07 A2968 RMK A01 T02330073  RH  036%=      5-min Rain = 0
KPD2 190221Z 22009KT 23/07 A2968 RMK A01 T02330073  RH  036%=      5-min Rain = 0
KPD2 190222Z 23004KT 23/07 A2968 RMK A01 T02330074  RH  036%=      5-min Rain = 0
KPD2 190223Z 20003KT 23/07 A2968 RMK A01 T02320074  RH  036%=      5-min Rain = 0
KPD2 190224Z 15003KT 23/07 A2968 RMK A01 T02320074  RH  036%=      5-min Rain = 0
KPD2 190225Z 19006G11KT 23/07 A2968 RMK A01 T02310074  RH  036%=      5-min Rain = 0
KPD2 190226Z 20008KT 23/07 A2968 RMK A01 T02300072  RH  036%=      5-min Rain = 0
KPD2 190227Z 19005G10KT 23/07 A2968 RMK A01 T02300071  RH  036%=      5-min Rain = 0
KPD2 190228Z 21003KT 23/07 A2968 RMK A01 T02300071  RH  036%=      5-min Rain = 0
KPD2 190229Z 20005KT 23/07 A2968 RMK A01 T02300072  RH  036%=      5-min Rain = 0
KPD2 190230Z 20008G13KT 23/07 A2968 RMK A01 T02310070  RH  036%=      5-min Rain = 0
KPD2 190231Z 19005KT 23/07 A2968 RMK A01 T02300070  RH  035%=      5-min Rain = 0
KPD2 190232Z 19008KT 23/07 A2968 RMK A01 T02310070  RH  036%=      5-min Rain = 0
KPD2 190233Z 21008KT 23/07 A2967 RMK A01 T02310069  RH  035%=      5-min Rain = 0
KPD2 190234Z 18008KT 23/07 A2967 RMK A01 T02310068  RH  035%=      5-min Rain = 0
KPD2 190235Z 19007G12KT 23/07 A2967 RMK A01 T02320068  RH  035%=      5-min Rain = 0
KPD2 190236Z 18005KT 23/07 A2967 RMK A01 T02320068  RH  035%=      5-min Rain = 0
KPD2 190237Z 19006KT 23/07 A2967 RMK A01 T02320069  RH  035%=      5-min Rain = 0
KPD2 190238Z 19006KT 23/07 A2967 RMK A01 T02320068  RH  035%=      5-min Rain = 0
KPD2 190239Z 18006KT 23/07 A2967 RMK A01 T02310068  RH  035%=      5-min Rain = 0
KPD2 190240Z 19007KT 23/07 A2967 RMK A01 T02310068  RH  035%=      5-min Rain = 0
KPD2 190241Z 18004KT 23/07 A2967 RMK A01 T02310067  RH  035%=      5-min Rain = 0
KPD2 190242Z 20004KT 23/07 A2967 RMK A01 T02310068  RH  035%=      5-min Rain = 0
KPD2 190243Z 22006KT 23/07 A2967 RMK A01 T02300067  RH  035%=      5-min Rain = 0
KPD2 190244Z 22006KT 23/07 A2967 RMK A01 T02300066  RH  035%=      5-min Rain = 0
KPD2 190245Z 22006KT 23/07 A2967 RMK A01 T02300066  RH  035%=      5-min Rain = 0
KPD2 190246Z 21005KT 23/07 A2967 RMK A01 T02300065  RH  034%=      5-min Rain = 0
KPD2 190247Z 21002KT 23/07 A2967 RMK A01 T02300066  RH  035%=      5-min Rain = 0
KPD2 190248Z 22002KT 23/07 A2967 RMK A01 T02300066  RH  035%=      5-min Rain = 0
KPD2 190249Z 23002KT 23/07 A2967 RMK A01 T02300067  RH  035%=      5-min Rain = 0
KPD2 190250Z 23003KT 23/07 A2967 RMK A01 T02290066  RH  035%=      5-min Rain = 0
KPD2 190251Z 21003KT 23/07 A2967 RMK A01 T02290065  RH  035%=      5-min Rain = 0
KPD2 190252Z 24002KT 23/06 A2967 RMK A01 T02290064  RH  034%=      5-min Rain = 0
KPD2 190253Z 19003KT 23/06 A2967 RMK A01 T02280062  RH  034%=      5-min Rain = 0
KPD2 190254Z 21004KT 23/06 A2967 RMK A01 T02280063  RH  034%=      5-min Rain = 0
KPD2 190255Z 23004KT 23/06 A2967 RMK A01 T02280063  RH  034%=      5-min Rain = 0
KPD2 190256Z 21004KT 23/06 A2967 RMK A01 T02280061  RH  034%=      5-min Rain = 0
KPD2 190257Z 22003KT 23/06 A2967 RMK A01 T02280060  RH  034%=      5-min Rain = 0
KPD2 190258Z 20002KT 23/06 A2967 RMK A01 T02290062  RH  034%=      5-min Rain = 0
KPD2 190259Z 22005KT 23/06 A2967 RMK A01 T02280061  RH  034%=      5-min Rain = 0
KPD2 190300Z 22006KT 23/06 A2967 RMK A01 T02280061  RH  034%=      5-min Rain = 0
KPD2 190301Z 25002KT 23/06 A2967 RMK A01 T02280062  RH  034%=      5-min Rain = 0
KPD2 190302Z 24002KT 23/06 A2967 RMK A01 T02280062  RH  034%=      5-min Rain = 0
KPD2 190303Z 23004KT 23/06 A2967 RMK A01 T02270062  RH  034%=      5-min Rain = 0
KPD2 190304Z 23003KT 23/06 A2967 RMK A01 T02260061  RH  034%=      5-min Rain = 0
KPD2 190305Z 24002KT 23/06 A2967 RMK A01 T02260061  RH  034%=      5-min Rain = 0
KPD2 190306Z 25004KT 23/06 A2967 RMK A01 T02260062  RH  035%=      5-min Rain = 0
KPD2 190307Z 26003KT 23/06 A2967 RMK A01 T02250060  RH  034%=      5-min Rain = 0
KPD2 190308Z 26004KT 23/06 A2967 RMK A01 T02250061  RH  035%=      5-min Rain = 0
KPD2 190309Z 27003KT 22/06 A2967 RMK A01 T02240061  RH  035%=      5-min Rain = 0
KPD2 190310Z 28003KT 22/06 A2967 RMK A01 T02240061  RH  035%=      5-min Rain = 0
KPD2 190311Z 29002KT 22/06 A2967 RMK A01 T02230061  RH  035%=      5-min Rain = 0
KPD2 190312Z 33003KT 22/06 A2967 RMK A01 T02220063  RH  036%=      5-min Rain = 0
KPD2 190313Z 33003KT 22/06 A2967 RMK A01 T02210063  RH  036%=      5-min Rain = 0
KPD2 190314Z 35002KT 22/06 A2967 RMK A01 T02200063  RH  036%=      5-min Rain = 0
KPD2 190315Z 33002KT 22/06 A2967 RMK A01 T02190062  RH  036%=      5-min Rain = 0
KPD2 190316Z 32002KT 22/06 A2967 RMK A01 T02180061  RH  036%=      5-min Rain = 0
KPD2 190317Z 35003KT 22/06 A2967 RMK A01 T02180060  RH  036%=      5-min Rain = 0
KPD2 190318Z 35004KT 22/06 A2967 RMK A01 T02180063  RH  036%=      5-min Rain = 0
KPD2 190319Z 35003KT 22/06 A2967 RMK A01 T02170063  RH  037%=      5-min Rain = 0
KPD2 190320Z 32005KT 22/06 A2967 RMK A01 T02160062  RH  037%=      5-min Rain = 0
KPD2 190321Z 31004KT 22/06 A2967 RMK A01 T02150063  RH  037%=      5-min Rain = 0
KPD2 190322Z 31005KT 21/06 A2967 RMK A01 T02140062  RH  037%=      5-min Rain = 0
KPD2 190323Z 35005KT 21/06 A2967 RMK A01 T02120062  RH  038%=      5-min Rain = 0
KPD2 190324Z 34004KT 21/06 A2967 RMK A01 T02110062  RH  038%=      5-min Rain = 0
KPD2 190325Z 34004KT 21/06 A2967 RMK A01 T02110061  RH  038%=      5-min Rain = 0
KPD2 190326Z 34005KT 21/06 A2967 RMK A01 T02110061  RH  038%=      5-min Rain = 0
KPD2 190327Z 33005KT 21/06 A2967 RMK A01 T02110060  RH  037%=      5-min Rain = 0
KPD2 190328Z 33007KT 21/06 A2967 RMK A01 T02110058  RH  037%=      5-min Rain = 0
KPD2 190329Z 33007KT 21/06 A2967 RMK A01 T02120058  RH  037%=      5-min Rain = 0
KPD2 190330Z 33006KT 21/06 A2967 RMK A01 T02130057  RH  036%=      5-min Rain = 0
KPD2 190331Z 32006KT 21/06 A2967 RMK A01 T02140058  RH  036%=      5-min Rain = 0
KPD2 190332Z 32007KT 21/06 A2967 RMK A01 T02140059  RH  037%=      5-min Rain = 0
KPD2 190333Z 34006KT 21/06 A2968 RMK A01 T02140060  RH  037%=      5-min Rain = 0
KPD2 190334Z 33004KT 21/06 A2967 RMK A01 T02140062  RH  037%=      5-min Rain = 0
KPD2 190335Z 32005KT 21/06 A2968 RMK A01 T02130062  RH  037%=      5-min Rain = 0
KPD2 190336Z 31006KT 21/06 A2968 RMK A01 T02130061  RH  037%=      5-min Rain = 0
KPD2 190337Z 31006KT 21/06 A2968 RMK A01 T02130061  RH  037%=      5-min Rain = 0
KPD2 190338Z 33005KT 21/06 A2968 RMK A01 T02130062  RH  037%=      5-min Rain = 0
KPD2 190339Z 34006KT 21/06 A2968 RMK A01 T02120062  RH  038%=      5-min Rain = 0
KPD2 190340Z 32007KT 21/06 A2968 RMK A01 T02110061  RH  038%=      5-min Rain = 0
KPD2 190341Z 33006KT 21/06 A2968 RMK A01 T02110060  RH  038%=      5-min Rain = 0
KPD2 190342Z 34006KT 21/06 A2968 RMK A01 T02100060  RH  038%=      5-min Rain = 0
KPD2 190343Z 32008KT 21/06 A2968 RMK A01 T02100060  RH  038%=      5-min Rain = 0
KPD2 190344Z 33008KT 21/06 A2968 RMK A01 T02100057  RH  037%=      5-min Rain = 0
KPD2 190345Z 32008KT 21/05 A2968 RMK A01 T02100054  RH  036%=      5-min Rain = 0
KPD2 190346Z 32008KT 21/05 A2968 RMK A01 T02110054  RH  036%=      5-min Rain = 0
KPD2 190347Z 32006KT 21/05 A2968 RMK A01 T02110054  RH  036%=      5-min Rain = 0
KPD2 190348Z 32007KT 21/06 A2968 RMK A01 T02110055  RH  036%=      5-min Rain = 0
KPD2 190349Z 32006KT 21/06 A2968 RMK A01 T02110055  RH  036%=      5-min Rain = 0
KPD2 190350Z 32005KT 21/06 A2968 RMK A01 T02100056  RH  037%=      5-min Rain = 0
KPD2 190351Z 33005KT 21/06 A2968 RMK A01 T02090056  RH  037%=      5-min Rain = 0
KPD2 190352Z 32006KT 21/06 A2968 RMK A01 T02080057  RH  037%=      5-min Rain = 0
KPD2 190353Z 33006KT 21/06 A2968 RMK A01 T02070056  RH  037%=      5-min Rain = 0
KPD2 190354Z 32007KT 21/06 A2968 RMK A01 T02070056  RH  037%=      5-min Rain = 0
KPD2 190355Z 32005KT 21/06 A2968 RMK A01 T02070055  RH  037%=      5-min Rain = 0
KPD2 190356Z 34005KT 21/06 A2968 RMK A01 T02070055  RH  037%=      5-min Rain = 0
KPD2 190357Z 33006KT 21/05 A2968 RMK A01 T02060054  RH  037%=      5-min Rain = 0
KPD2 190358Z 33007KT 21/05 A2968 RMK A01 T02050052  RH  037%=      5-min Rain = 0
KPD2 190359Z 33008KT 21/05 A2968 RMK A01 T02050049  RH  036%=      5-min Rain = 0
KPD2 190400Z 33008KT 21/05 A2968 RMK A01 T02060048  RH  035%=      5-min Rain = 0
KPD2 190401Z 33006KT 21/05 A2968 RMK A01 T02060047  RH  035%=      5-min Rain = 0
KPD2 190402Z 34007KT 21/05 A2968 RMK A01 T02060048  RH  035%=      5-min Rain = 0
KPD2 190403Z 34008KT 21/05 A2968 RMK A01 T02060046  RH  035%=      5-min Rain = 0
KPD2 190404Z 33009KT 21/04 A2968 RMK A01 T02060044  RH  034%=      5-min Rain = 0
KPD2 190405Z 33008KT 21/04 A2968 RMK A01 T02070043  RH  034%=      5-min Rain = 0
KPD2 190406Z 32005KT 21/04 A2968 RMK A01 T02080043  RH  034%=      5-min Rain = 0
KPD2 190407Z 34006KT 21/04 A2968 RMK A01 T02080044  RH  034%=      5-min Rain = 0
KPD2 190408Z 33006KT 21/04 A2968 RMK A01 T02080044  RH  034%=      5-min Rain = 0
KPD2 190409Z 32005KT 21/04 A2969 RMK A01 T02080043  RH  034%=      5-min Rain = 0
KPD2 190410Z 33005KT 21/04 A2969 RMK A01 T02080043  RH  034%=      5-min Rain = 0
KPD2 190411Z 32006KT 21/04 A2969 RMK A01 T02070043  RH  034%=      5-min Rain = 0
KPD2 190412Z 33005KT 21/04 A2969 RMK A01 T02070043  RH  034%=      5-min Rain = 0
KPD2 190413Z 34007KT 21/04 A2969 RMK A01 T02060041  RH  034%=      5-min Rain = 0
KPD2 190414Z 32006KT 21/04 A2969 RMK A01 T02060042  RH  034%=      5-min Rain = 0
KPD2 190415Z 32005KT 21/04 A2969 RMK A01 T02050042  RH  034%=      5-min Rain = 0
KPD2 190416Z 33006KT 21/04 A2969 RMK A01 T02050040  RH  034%=      5-min Rain = 0
KPD2 190417Z 33006KT 20/04 A2968 RMK A01 T02040039  RH  034%=      5-min Rain = 0
KPD2 190418Z 33005KT 21/04 A2969 RMK A01 T02050040  RH  034%=      5-min Rain = 0
KPD2 190419Z 32006KT 20/04 A2969 RMK A01 T02040040  RH  034%=      5-min Rain = 0
KPD2 190420Z 31005KT 20/04 A2969 RMK A01 T02030038  RH  034%=      5-min Rain = 0
KPD2 190421Z 33006KT 20/04 A2969 RMK A01 T02030038  RH  034%=      5-min Rain = 0
KPD2 190422Z 32008KT 20/04 A2969 RMK A01 T02030037  RH  034%=      5-min Rain = 0
KPD2 190423Z 32008KT 20/04 A2969 RMK A01 T02030036  RH  033%=      5-min Rain = 0
KPD2 190424Z 31008KT 20/04 A2969 RMK A01 T02030035  RH  033%=      5-min Rain = 0
KPD2 190425Z 34007KT 20/04 A2969 RMK A01 T02040035  RH  033%=      5-min Rain = 0
KPD2 190426Z 32006KT 21/04 A2969 RMK A01 T02050036  RH  033%=      5-min Rain = 0
KPD2 190427Z 32008KT 21/04 A2969 RMK A01 T02050035  RH  033%=      5-min Rain = 0
KPD2 190428Z 33007KT 21/04 A2969 RMK A01 T02060035  RH  032%=      5-min Rain = 0
KPD2 190429Z 34006KT 21/04 A2969 RMK A01 T02050035  RH  033%=      5-min Rain = 0
KPD2 190430Z 33006KT 20/04 A2969 RMK A01 T02040035  RH  033%=      5-min Rain = 0
KPD2 190431Z 33007KT 20/04 A2969 RMK A01 T02040036  RH  033%=      5-min Rain = 0
KPD2 190432Z 35007KT 20/04 A2969 RMK A01 T02020035  RH  033%=      5-min Rain = 0
KPD2 190433Z 35007KT 20/04 A2968 RMK A01 T02010036  RH  034%=      5-min Rain = 0
KPD2 190434Z 33006KT 20/04 A2969 RMK A01 T02010035  RH  033%=      5-min Rain = 0
KPD2 190435Z 33007KT 20/04 A2969 RMK A01 T02000035  RH  033%=      5-min Rain = 0
KPD2 190436Z 35006KT 20/04 A2968 RMK A01 T02000035  RH  033%=      5-min Rain = 0
KPD2 190437Z 34007KT 20/04 A2969 RMK A01 T02000036  RH  034%=      5-min Rain = 0
KPD2 190438Z 33007KT 20/04 A2969 RMK A01 T01990035  RH  034%=      5-min Rain = 0
KPD2 190439Z 34007KT 20/04 A2968 RMK A01 T01980035  RH  034%=      5-min Rain = 0
KPD2 190440Z 34008KT 20/04 A2968 RMK A01 T01980035  RH  034%=      5-min Rain = 0
KPD2 190441Z 34006KT 20/03 A2968 RMK A01 T01980034  RH  034%=      5-min Rain = 0
KPD2 190442Z 34006KT 20/03 A2968 RMK A01 T01980034  RH  034%=      5-min Rain = 0
KPD2 190443Z 34006KT 20/03 A2968 RMK A01 T01990034  RH  034%=      5-min Rain = 0
KPD2 190444Z 34006KT 20/03 A2968 RMK A01 T01990034  RH  034%=      5-min Rain = 0
KPD2 190445Z 35007KT 20/03 A2968 RMK A01 T01980034  RH  034%=      5-min Rain = 0
KPD2 190446Z 33009KT 20/03 A2968 RMK A01 T01980034  RH  034%=      5-min Rain = 0
KPD2 190447Z 34008KT 20/03 A2969 RMK A01 T01980033  RH  034%=      5-min Rain = 0
KPD2 190448Z 34008KT 20/03 A2969 RMK A01 T01980034  RH  034%=      5-min Rain = 0
KPD2 190449Z 34008KT 20/03 A2969 RMK A01 T01980034  RH  034%=      5-min Rain = 0
KPD2 190450Z 34008KT 20/03 A2969 RMK A01 T01980034  RH  034%=      5-min Rain = 0
KPD2 190451Z 33009KT 20/03 A2969 RMK A01 T01980033  RH  034%=      5-min Rain = 0
KPD2 190452Z 34006KT 20/03 A2969 RMK A01 T01980033  RH  034%=      5-min Rain = 0
KPD2 190453Z 33009KT 20/03 A2969 RMK A01 T01990034  RH  034%=      5-min Rain = 0
KPD2 190454Z 33009KT 20/03 A297 RMK A01 T01990034  RH  034%=      5-min Rain = 0
KPD2 190455Z 33008KT 20/03 A297 RMK A01 T01980034  RH  034%=      5-min Rain = 0
KPD2 190456Z 33007KT 20/03 A297 RMK A01 T01980033  RH  034%=      5-min Rain = 0
KPD2 190457Z 34008KT 20/03 A297 RMK A01 T01980034  RH  034%=      5-min Rain = 0
KPD2 190458Z 33008KT 20/03 A297 RMK A01 T01980033  RH  034%=      5-min Rain = 0
KPD2 190459Z 33011KT 20/03 A297 RMK A01 T01980034  RH  034%=      5-min Rain = 0

Page generated in 0.0812 seconds.